<?xml version="1.0" encoding="UTF-8" standalone="no" ?>
<gpx xmlns="http://www.topografix.com/GPX/1/1" xmlns:xsi="http://www.w3.org/2001/XMLSchema-instance" xsi:schemaLocation="http://www.topografix.com/GPX/1/1 http://www.topografix.com/GPX/1/1/gpx.xsd" version="1.1" creator="VisuGPX - https://www.visugpx.com">
  <metadata>
    <name>VTT - Bois de la Mourachonne</name>
    <desc><![CDATA[Balade du dimanche]]></desc>
  </metadata>
  <trk>
    <name><![CDATA[Bois de la Mourachonne]]></name>
    <cmt><![CDATA[Balade digestive avec Matthieu dans les bois. Sympa !]]></cmt>
    <trkseg>
      <trkpt lat="43.60207" lon="6.95069">
        <ele>141.93130493164</ele>
        <time>2012-11-18T13:42:39Z</time>
      </trkpt>
      <trkpt lat="43.60208" lon="6.95073">
        <ele>142.09609985352</ele>
        <time>2012-11-18T13:42:42Z</time>
      </trkpt>
      <trkpt lat="43.60212" lon="6.9508">
        <ele>142.50636291504</ele>
        <time>2012-11-18T13:42:45Z</time>
      </trkpt>
      <trkpt lat="43.60208" lon="6.95089">
        <ele>142.29702758789</ele>
        <time>2012-11-18T13:42:48Z</time>
      </trkpt>
      <trkpt lat="43.60206" lon="6.95091">
        <ele>142.14767456055</ele>
        <time>2012-11-18T13:42:49Z</time>
      </trkpt>
      <trkpt lat="43.60195" lon="6.95103">
        <ele>141.31683349609</ele>
        <time>2012-11-18T13:42:54Z</time>
      </trkpt>
      <trkpt lat="43.60184" lon="6.95103">
        <ele>140.82899475098</ele>
        <time>2012-11-18T13:42:58Z</time>
      </trkpt>
      <trkpt lat="43.60175" lon="6.95086">
        <ele>140.54057312012</ele>
        <time>2012-11-18T13:43:02Z</time>
      </trkpt>
      <trkpt lat="43.60159" lon="6.95062">
        <ele>140.7587890625</ele>
        <time>2012-11-18T13:43:08Z</time>
      </trkpt>
      <trkpt lat="43.60144" lon="6.95041">
        <ele>141</ele>
        <time>2012-11-18T13:43:13Z</time>
      </trkpt>
      <trkpt lat="43.6012" lon="6.95006">
        <ele>141</ele>
        <time>2012-11-18T13:43:20Z</time>
      </trkpt>
      <trkpt lat="43.60093" lon="6.94967">
        <ele>141</ele>
        <time>2012-11-18T13:43:27Z</time>
      </trkpt>
      <trkpt lat="43.60071" lon="6.94933">
        <ele>140.59777832031</ele>
        <time>2012-11-18T13:43:33Z</time>
      </trkpt>
      <trkpt lat="43.60041" lon="6.94885">
        <ele>139</ele>
        <time>2012-11-18T13:43:41Z</time>
      </trkpt>
      <trkpt lat="43.60034" lon="6.94862">
        <ele>139</ele>
        <time>2012-11-18T13:43:44Z</time>
      </trkpt>
      <trkpt lat="43.60032" lon="6.94849">
        <ele>138.55078125</ele>
        <time>2012-11-18T13:43:46Z</time>
      </trkpt>
      <trkpt lat="43.60027" lon="6.94832">
        <ele>138.03045654297</ele>
        <time>2012-11-18T13:43:49Z</time>
      </trkpt>
      <trkpt lat="43.60024" lon="6.94831">
        <ele>138.12658691406</ele>
        <time>2012-11-18T13:43:50Z</time>
      </trkpt>
      <trkpt lat="43.60012" lon="6.94824">
        <ele>138.55230712891</ele>
        <time>2012-11-18T13:43:53Z</time>
      </trkpt>
      <trkpt lat="43.60001" lon="6.94801">
        <ele>138.97419738769</ele>
        <time>2012-11-18T13:43:57Z</time>
      </trkpt>
      <trkpt lat="43.5999" lon="6.94786">
        <ele>139</ele>
        <time>2012-11-18T13:44:01Z</time>
      </trkpt>
      <trkpt lat="43.59979" lon="6.94779">
        <ele>139</ele>
        <time>2012-11-18T13:44:04Z</time>
      </trkpt>
      <trkpt lat="43.59975" lon="6.94776">
        <ele>138.95182800293</ele>
        <time>2012-11-18T13:44:05Z</time>
      </trkpt>
      <trkpt lat="43.59962" lon="6.94766">
        <ele>138.56387329102</ele>
        <time>2012-11-18T13:44:09Z</time>
      </trkpt>
      <trkpt lat="43.59959" lon="6.94764">
        <ele>138.49005126953</ele>
        <time>2012-11-18T13:44:10Z</time>
      </trkpt>
      <trkpt lat="43.59944" lon="6.9475">
        <ele>138</ele>
        <time>2012-11-18T13:44:15Z</time>
      </trkpt>
      <trkpt lat="43.59935" lon="6.94741">
        <ele>138</ele>
        <time>2012-11-18T13:44:19Z</time>
      </trkpt>
      <trkpt lat="43.59921" lon="6.94723">
        <ele>138</ele>
        <time>2012-11-18T13:44:24Z</time>
      </trkpt>
      <trkpt lat="43.59893" lon="6.94701">
        <ele>138</ele>
        <time>2012-11-18T13:44:32Z</time>
      </trkpt>
      <trkpt lat="43.59867" lon="6.94679">
        <ele>138</ele>
        <time>2012-11-18T13:44:40Z</time>
      </trkpt>
      <trkpt lat="43.59852" lon="6.94668">
        <ele>138</ele>
        <time>2012-11-18T13:44:45Z</time>
      </trkpt>
      <trkpt lat="43.5984" lon="6.94656">
        <ele>138</ele>
        <time>2012-11-18T13:44:51Z</time>
      </trkpt>
      <trkpt lat="43.59819" lon="6.9464">
        <ele>138</ele>
        <time>2012-11-18T13:44:58Z</time>
      </trkpt>
      <trkpt lat="43.59808" lon="6.9463">
        <ele>138</ele>
        <time>2012-11-18T13:45:03Z</time>
      </trkpt>
      <trkpt lat="43.59797" lon="6.94624">
        <ele>138</ele>
        <time>2012-11-18T13:45:07Z</time>
      </trkpt>
      <trkpt lat="43.5979" lon="6.94612">
        <ele>138</ele>
        <time>2012-11-18T13:45:12Z</time>
      </trkpt>
      <trkpt lat="43.59781" lon="6.946">
        <ele>138.04525756836</ele>
        <time>2012-11-18T13:45:17Z</time>
      </trkpt>
      <trkpt lat="43.59779" lon="6.94599">
        <ele>138.01307678223</ele>
        <time>2012-11-18T13:45:18Z</time>
      </trkpt>
      <trkpt lat="43.59771" lon="6.94592">
        <ele>137.56106567383</ele>
        <time>2012-11-18T13:45:22Z</time>
      </trkpt>
      <trkpt lat="43.59758" lon="6.9458">
        <ele>136.61528015137</ele>
        <time>2012-11-18T13:45:27Z</time>
      </trkpt>
      <trkpt lat="43.59756" lon="6.94578">
        <ele>136.48654174805</ele>
        <time>2012-11-18T13:45:28Z</time>
      </trkpt>
      <trkpt lat="43.59748" lon="6.9457">
        <ele>135.86253356934</ele>
        <time>2012-11-18T13:45:32Z</time>
      </trkpt>
      <trkpt lat="43.59745" lon="6.9457">
        <ele>135.58749389648</ele>
        <time>2012-11-18T13:45:33Z</time>
      </trkpt>
      <trkpt lat="43.59738" lon="6.94567">
        <ele>134.85392761231</ele>
        <time>2012-11-18T13:45:36Z</time>
      </trkpt>
      <trkpt lat="43.59734" lon="6.94559">
        <ele>134.3742980957</ele>
        <time>2012-11-18T13:45:39Z</time>
      </trkpt>
      <trkpt lat="43.59736" lon="6.94555">
        <ele>134.54467773438</ele>
        <time>2012-11-18T13:45:40Z</time>
      </trkpt>
      <trkpt lat="43.59745" lon="6.9455">
        <ele>136.06387329102</ele>
        <time>2012-11-18T13:45:44Z</time>
      </trkpt>
      <trkpt lat="43.59747" lon="6.9455">
        <ele>136.32138061523</ele>
        <time>2012-11-18T13:45:45Z</time>
      </trkpt>
      <trkpt lat="43.59754" lon="6.94548">
        <ele>137.34909057617</ele>
        <time>2012-11-18T13:45:49Z</time>
      </trkpt>
      <trkpt lat="43.59764" lon="6.94542">
        <ele>139.20886230469</ele>
        <time>2012-11-18T13:45:54Z</time>
      </trkpt>
      <trkpt lat="43.59773" lon="6.94532">
        <ele>141.16458129883</ele>
        <time>2012-11-18T13:45:59Z</time>
      </trkpt>
      <trkpt lat="43.59774" lon="6.94529">
        <ele>141.55197143555</ele>
        <time>2012-11-18T13:46:00Z</time>
      </trkpt>
      <trkpt lat="43.59779" lon="6.94519">
        <ele>142.26272583008</ele>
        <time>2012-11-18T13:46:04Z</time>
      </trkpt>
      <trkpt lat="43.59779" lon="6.94509">
        <ele>142.64552307129</ele>
        <time>2012-11-18T13:46:10Z</time>
      </trkpt>
      <trkpt lat="43.59779" lon="6.94508">
        <ele>142.66784667969</ele>
        <time>2012-11-18T13:46:16Z</time>
      </trkpt>
      <trkpt lat="43.59779" lon="6.94508">
        <ele>142.64552307129</ele>
        <time>2012-11-18T13:46:27Z</time>
      </trkpt>
      <trkpt lat="43.59781" lon="6.94507">
        <ele>142.65411376953</ele>
        <time>2012-11-18T13:47:13Z</time>
      </trkpt>
      <trkpt lat="43.59786" lon="6.94501">
        <ele>142.66439819336</ele>
        <time>2012-11-18T13:47:20Z</time>
      </trkpt>
      <trkpt lat="43.59799" lon="6.94487">
        <ele>142.78521728516</ele>
        <time>2012-11-18T13:47:25Z</time>
      </trkpt>
      <trkpt lat="43.59811" lon="6.94468">
        <ele>142.93048095703</ele>
        <time>2012-11-18T13:47:31Z</time>
      </trkpt>
      <trkpt lat="43.59814" lon="6.94465">
        <ele>142.95108032227</ele>
        <time>2012-11-18T13:47:32Z</time>
      </trkpt>
      <trkpt lat="43.5982" lon="6.94464">
        <ele>142.79486083984</ele>
        <time>2012-11-18T13:47:35Z</time>
      </trkpt>
      <trkpt lat="43.59828" lon="6.94455">
        <ele>142.81204223633</ele>
        <time>2012-11-18T13:47:39Z</time>
      </trkpt>
      <trkpt lat="43.5983" lon="6.94451">
        <ele>142.86697387695</ele>
        <time>2012-11-18T13:47:40Z</time>
      </trkpt>
      <trkpt lat="43.59841" lon="6.94448">
        <ele>142.31069946289</ele>
        <time>2012-11-18T13:47:43Z</time>
      </trkpt>
      <trkpt lat="43.59859" lon="6.94452">
        <ele>140.85842895508</ele>
        <time>2012-11-18T13:47:47Z</time>
      </trkpt>
      <trkpt lat="43.5988" lon="6.94447">
        <ele>140.89794921875</ele>
        <time>2012-11-18T13:47:51Z</time>
      </trkpt>
      <trkpt lat="43.5989" lon="6.94446">
        <ele>140.88922119141</ele>
        <time>2012-11-18T13:47:53Z</time>
      </trkpt>
      <trkpt lat="43.59897" lon="6.94446">
        <ele>140.65107727051</ele>
        <time>2012-11-18T13:47:55Z</time>
      </trkpt>
      <trkpt lat="43.59905" lon="6.94446">
        <ele>140.39694213867</ele>
        <time>2012-11-18T13:47:58Z</time>
      </trkpt>
      <trkpt lat="43.59907" lon="6.94446">
        <ele>140.33341979981</ele>
        <time>2012-11-18T13:47:59Z</time>
      </trkpt>
      <trkpt lat="43.59919" lon="6.94445">
        <ele>140</ele>
        <time>2012-11-18T13:48:04Z</time>
      </trkpt>
      <trkpt lat="43.59935" lon="6.94449">
        <ele>140</ele>
        <time>2012-11-18T13:48:07Z</time>
      </trkpt>
      <trkpt lat="43.59937" lon="6.94445">
        <ele>140</ele>
        <time>2012-11-18T13:48:08Z</time>
      </trkpt>
      <trkpt lat="43.59941" lon="6.94443">
        <ele>140</ele>
        <time>2012-11-18T13:48:10Z</time>
      </trkpt>
      <trkpt lat="43.5995" lon="6.94447">
        <ele>140</ele>
        <time>2012-11-18T13:48:14Z</time>
      </trkpt>
      <trkpt lat="43.59952" lon="6.94447">
        <ele>140</ele>
        <time>2012-11-18T13:48:15Z</time>
      </trkpt>
      <trkpt lat="43.59964" lon="6.9445">
        <ele>140</ele>
        <time>2012-11-18T13:48:21Z</time>
      </trkpt>
      <trkpt lat="43.59977" lon="6.94454">
        <ele>140</ele>
        <time>2012-11-18T13:48:26Z</time>
      </trkpt>
      <trkpt lat="43.5998" lon="6.94455">
        <ele>140</ele>
        <time>2012-11-18T13:48:27Z</time>
      </trkpt>
      <trkpt lat="43.59997" lon="6.94457">
        <ele>140</ele>
        <time>2012-11-18T13:48:32Z</time>
      </trkpt>
      <trkpt lat="43.60014" lon="6.94463">
        <ele>140</ele>
        <time>2012-11-18T13:48:38Z</time>
      </trkpt>
      <trkpt lat="43.60022" lon="6.94466">
        <ele>140</ele>
        <time>2012-11-18T13:48:42Z</time>
      </trkpt>
      <trkpt lat="43.60033" lon="6.94467">
        <ele>140</ele>
        <time>2012-11-18T13:48:46Z</time>
      </trkpt>
      <trkpt lat="43.60035" lon="6.94464">
        <ele>140</ele>
        <time>2012-11-18T13:48:47Z</time>
      </trkpt>
      <trkpt lat="43.60043" lon="6.94454">
        <ele>140</ele>
        <time>2012-11-18T13:48:50Z</time>
      </trkpt>
      <trkpt lat="43.60048" lon="6.94444">
        <ele>140</ele>
        <time>2012-11-18T13:48:52Z</time>
      </trkpt>
      <trkpt lat="43.60062" lon="6.94414">
        <ele>139.97457885742</ele>
        <time>2012-11-18T13:48:57Z</time>
      </trkpt>
      <trkpt lat="43.60071" lon="6.94379">
        <ele>139.07443237305</ele>
        <time>2012-11-18T13:49:01Z</time>
      </trkpt>
      <trkpt lat="43.60073" lon="6.94371">
        <ele>138.71737670898</ele>
        <time>2012-11-18T13:49:02Z</time>
      </trkpt>
      <trkpt lat="43.60078" lon="6.94358">
        <ele>137.98793029785</ele>
        <time>2012-11-18T13:49:04Z</time>
      </trkpt>
      <trkpt lat="43.60082" lon="6.94346">
        <ele>136.94422912598</ele>
        <time>2012-11-18T13:49:06Z</time>
      </trkpt>
      <trkpt lat="43.60092" lon="6.94321">
        <ele>135.23513793945</ele>
        <time>2012-11-18T13:49:10Z</time>
      </trkpt>
      <trkpt lat="43.60095" lon="6.94319">
        <ele>135.08407592773</ele>
        <time>2012-11-18T13:49:11Z</time>
      </trkpt>
      <trkpt lat="43.60111" lon="6.94313">
        <ele>134.27899169922</ele>
        <time>2012-11-18T13:49:15Z</time>
      </trkpt>
      <trkpt lat="43.60127" lon="6.94295">
        <ele>132.48062133789</ele>
        <time>2012-11-18T13:49:19Z</time>
      </trkpt>
      <trkpt lat="43.60141" lon="6.94281">
        <ele>130.91491699219</ele>
        <time>2012-11-18T13:49:22Z</time>
      </trkpt>
      <trkpt lat="43.60151" lon="6.94272">
        <ele>129.5227355957</ele>
        <time>2012-11-18T13:49:24Z</time>
      </trkpt>
      <trkpt lat="43.60154" lon="6.94267">
        <ele>129.02835083008</ele>
        <time>2012-11-18T13:49:25Z</time>
      </trkpt>
      <trkpt lat="43.60162" lon="6.94256">
        <ele>127.70827484131</ele>
        <time>2012-11-18T13:49:28Z</time>
      </trkpt>
      <trkpt lat="43.60164" lon="6.94252">
        <ele>127.38555145264</ele>
        <time>2012-11-18T13:49:29Z</time>
      </trkpt>
      <trkpt lat="43.60175" lon="6.94233">
        <ele>126.09825134277</ele>
        <time>2012-11-18T13:49:34Z</time>
      </trkpt>
      <trkpt lat="43.6018" lon="6.94226">
        <ele>125.66223144531</ele>
        <time>2012-11-18T13:49:36Z</time>
      </trkpt>
      <trkpt lat="43.60192" lon="6.94203">
        <ele>124.44229125977</ele>
        <time>2012-11-18T13:49:42Z</time>
      </trkpt>
      <trkpt lat="43.60203" lon="6.94177">
        <ele>123.69958496094</ele>
        <time>2012-11-18T13:49:48Z</time>
      </trkpt>
      <trkpt lat="43.60216" lon="6.94152">
        <ele>122.69513702393</ele>
        <time>2012-11-18T13:49:53Z</time>
      </trkpt>
      <trkpt lat="43.60226" lon="6.94131">
        <ele>121.84814453125</ele>
        <time>2012-11-18T13:49:58Z</time>
      </trkpt>
      <trkpt lat="43.60239" lon="6.94114">
        <ele>121.40869140625</ele>
        <time>2012-11-18T13:50:03Z</time>
      </trkpt>
      <trkpt lat="43.60254" lon="6.94103">
        <ele>120.61589050293</ele>
        <time>2012-11-18T13:50:07Z</time>
      </trkpt>
      <trkpt lat="43.60276" lon="6.94079">
        <ele>120</ele>
        <time>2012-11-18T13:50:13Z</time>
      </trkpt>
      <trkpt lat="43.60281" lon="6.94076">
        <ele>120</ele>
        <time>2012-11-18T13:50:14Z</time>
      </trkpt>
      <trkpt lat="43.60293" lon="6.94066">
        <ele>120</ele>
        <time>2012-11-18T13:50:17Z</time>
      </trkpt>
      <trkpt lat="43.60301" lon="6.94052">
        <ele>120</ele>
        <time>2012-11-18T13:50:20Z</time>
      </trkpt>
      <trkpt lat="43.60303" lon="6.94048">
        <ele>120</ele>
        <time>2012-11-18T13:50:21Z</time>
      </trkpt>
      <trkpt lat="43.60308" lon="6.94034">
        <ele>119.97966766357</ele>
        <time>2012-11-18T13:50:25Z</time>
      </trkpt>
      <trkpt lat="43.60311" lon="6.94026">
        <ele>120</ele>
        <time>2012-11-18T13:50:28Z</time>
      </trkpt>
      <trkpt lat="43.60311" lon="6.94022">
        <ele>120</ele>
        <time>2012-11-18T13:50:29Z</time>
      </trkpt>
      <trkpt lat="43.60307" lon="6.94013">
        <ele>120</ele>
        <time>2012-11-18T13:50:33Z</time>
      </trkpt>
      <trkpt lat="43.60299" lon="6.94009">
        <ele>120</ele>
        <time>2012-11-18T13:50:38Z</time>
      </trkpt>
      <trkpt lat="43.60296" lon="6.94008">
        <ele>120</ele>
        <time>2012-11-18T13:50:40Z</time>
      </trkpt>
      <trkpt lat="43.60295" lon="6.94006">
        <ele>120</ele>
        <time>2012-11-18T13:50:41Z</time>
      </trkpt>
      <trkpt lat="43.60292" lon="6.94005">
        <ele>120</ele>
        <time>2012-11-18T13:50:43Z</time>
      </trkpt>
      <trkpt lat="43.60291" lon="6.94002">
        <ele>120</ele>
        <time>2012-11-18T13:50:44Z</time>
      </trkpt>
      <trkpt lat="43.6029" lon="6.93996">
        <ele>120</ele>
        <time>2012-11-18T13:50:47Z</time>
      </trkpt>
      <trkpt lat="43.60295" lon="6.93995">
        <ele>120</ele>
        <time>2012-11-18T13:50:51Z</time>
      </trkpt>
      <trkpt lat="43.60295" lon="6.93994">
        <ele>120</ele>
        <time>2012-11-18T13:50:56Z</time>
      </trkpt>
      <trkpt lat="43.60298" lon="6.93992">
        <ele>120</ele>
        <time>2012-11-18T13:51:45Z</time>
      </trkpt>
      <trkpt lat="43.603" lon="6.93987">
        <ele>120</ele>
        <time>2012-11-18T13:51:47Z</time>
      </trkpt>
      <trkpt lat="43.60313" lon="6.93976">
        <ele>120</ele>
        <time>2012-11-18T13:51:51Z</time>
      </trkpt>
      <trkpt lat="43.60326" lon="6.93982">
        <ele>120</ele>
        <time>2012-11-18T13:51:55Z</time>
      </trkpt>
      <trkpt lat="43.60333" lon="6.93975">
        <ele>120</ele>
        <time>2012-11-18T13:51:58Z</time>
      </trkpt>
      <trkpt lat="43.60339" lon="6.9397">
        <ele>119.17054748535</ele>
        <time>2012-11-18T13:52:00Z</time>
      </trkpt>
      <trkpt lat="43.60342" lon="6.93963">
        <ele>118.58606719971</ele>
        <time>2012-11-18T13:52:02Z</time>
      </trkpt>
      <trkpt lat="43.60342" lon="6.93959">
        <ele>118.66283416748</ele>
        <time>2012-11-18T13:52:03Z</time>
      </trkpt>
      <trkpt lat="43.60349" lon="6.93948">
        <ele>117.33016204834</ele>
        <time>2012-11-18T13:52:06Z</time>
      </trkpt>
      <trkpt lat="43.60364" lon="6.93931">
        <ele>114.61818695068</ele>
        <time>2012-11-18T13:52:09Z</time>
      </trkpt>
      <trkpt lat="43.60388" lon="6.93901">
        <ele>110.5947265625</ele>
        <time>2012-11-18T13:52:13Z</time>
      </trkpt>
      <trkpt lat="43.60398" lon="6.93888">
        <ele>108.88793945312</ele>
        <time>2012-11-18T13:52:15Z</time>
      </trkpt>
      <trkpt lat="43.60408" lon="6.93877">
        <ele>107.35648345947</ele>
        <time>2012-11-18T13:52:17Z</time>
      </trkpt>
      <trkpt lat="43.60424" lon="6.93867">
        <ele>105.84694671631</ele>
        <time>2012-11-18T13:52:21Z</time>
      </trkpt>
      <trkpt lat="43.60432" lon="6.93862">
        <ele>105.45848083496</ele>
        <time>2012-11-18T13:52:23Z</time>
      </trkpt>
      <trkpt lat="43.60442" lon="6.93851">
        <ele>104.70767211914</ele>
        <time>2012-11-18T13:52:26Z</time>
      </trkpt>
      <trkpt lat="43.60447" lon="6.93848">
        <ele>104.29354095459</ele>
        <time>2012-11-18T13:52:27Z</time>
      </trkpt>
      <trkpt lat="43.6046" lon="6.93832">
        <ele>102.31282043457</ele>
        <time>2012-11-18T13:52:31Z</time>
      </trkpt>
      <trkpt lat="43.60469" lon="6.93815">
        <ele>101.29977416992</ele>
        <time>2012-11-18T13:52:35Z</time>
      </trkpt>
      <trkpt lat="43.60473" lon="6.93798">
        <ele>100.65148925781</ele>
        <time>2012-11-18T13:52:39Z</time>
      </trkpt>
      <trkpt lat="43.60474" lon="6.9379">
        <ele>100.25163269043</ele>
        <time>2012-11-18T13:52:41Z</time>
      </trkpt>
      <trkpt lat="43.60477" lon="6.93772">
        <ele>98.62035369873</ele>
        <time>2012-11-18T13:52:46Z</time>
      </trkpt>
      <trkpt lat="43.60489" lon="6.93751">
        <ele>92.728866577148</ele>
        <time>2012-11-18T13:52:53Z</time>
      </trkpt>
      <trkpt lat="43.605" lon="6.9375">
        <ele>87.848052978516</ele>
        <time>2012-11-18T13:52:57Z</time>
      </trkpt>
      <trkpt lat="43.60514" lon="6.93757">
        <ele>84.659889221191</ele>
        <time>2012-11-18T13:53:01Z</time>
      </trkpt>
      <trkpt lat="43.60518" lon="6.9376">
        <ele>83.631057739258</ele>
        <time>2012-11-18T13:53:02Z</time>
      </trkpt>
      <trkpt lat="43.60534" lon="6.9377">
        <ele>76.051223754883</ele>
        <time>2012-11-18T13:53:06Z</time>
      </trkpt>
      <trkpt lat="43.60546" lon="6.93781">
        <ele>69.648536682129</ele>
        <time>2012-11-18T13:53:09Z</time>
      </trkpt>
      <trkpt lat="43.60549" lon="6.93785">
        <ele>68.861961364746</ele>
        <time>2012-11-18T13:53:10Z</time>
      </trkpt>
      <trkpt lat="43.60547" lon="6.93804">
        <ele>72.985610961914</ele>
        <time>2012-11-18T13:53:13Z</time>
      </trkpt>
      <trkpt lat="43.60546" lon="6.93817">
        <ele>75.28572845459</ele>
        <time>2012-11-18T13:53:15Z</time>
      </trkpt>
      <trkpt lat="43.60552" lon="6.93828">
        <ele>73.934463500977</ele>
        <time>2012-11-18T13:53:17Z</time>
      </trkpt>
      <trkpt lat="43.60558" lon="6.9383">
        <ele>72.281929016113</ele>
        <time>2012-11-18T13:53:20Z</time>
      </trkpt>
      <trkpt lat="43.60566" lon="6.9384">
        <ele>72.705070495605</ele>
        <time>2012-11-18T13:53:23Z</time>
      </trkpt>
      <trkpt lat="43.60571" lon="6.93843">
        <ele>72.636894226074</ele>
        <time>2012-11-18T13:53:25Z</time>
      </trkpt>
      <trkpt lat="43.60574" lon="6.93846">
        <ele>72.687118530273</ele>
        <time>2012-11-18T13:53:27Z</time>
      </trkpt>
      <trkpt lat="43.60578" lon="6.93846">
        <ele>72.35538482666</ele>
        <time>2012-11-18T13:53:30Z</time>
      </trkpt>
      <trkpt lat="43.60581" lon="6.93845">
        <ele>71.978034973145</ele>
        <time>2012-11-18T13:53:32Z</time>
      </trkpt>
      <trkpt lat="43.60584" lon="6.93843">
        <ele>71.141571044922</ele>
        <time>2012-11-18T13:53:35Z</time>
      </trkpt>
      <trkpt lat="43.60588" lon="6.93841">
        <ele>70.063537597656</ele>
        <time>2012-11-18T13:53:37Z</time>
      </trkpt>
      <trkpt lat="43.606" lon="6.93846">
        <ele>68.257659912109</ele>
        <time>2012-11-18T13:53:41Z</time>
      </trkpt>
      <trkpt lat="43.60603" lon="6.93848">
        <ele>67.811340332031</ele>
        <time>2012-11-18T13:53:42Z</time>
      </trkpt>
      <trkpt lat="43.60621" lon="6.93858">
        <ele>65.266677856445</ele>
        <time>2012-11-18T13:53:48Z</time>
      </trkpt>
      <trkpt lat="43.60637" lon="6.93863">
        <ele>62.781803131104</ele>
        <time>2012-11-18T13:53:56Z</time>
      </trkpt>
      <trkpt lat="43.60645" lon="6.93863">
        <ele>61.312675476074</ele>
        <time>2012-11-18T13:54:04Z</time>
      </trkpt>
      <trkpt lat="43.60647" lon="6.93863">
        <ele>60.980579376221</ele>
        <time>2012-11-18T13:54:10Z</time>
      </trkpt>
      <trkpt lat="43.60654" lon="6.93859">
        <ele>58.923439025879</ele>
        <time>2012-11-18T13:54:13Z</time>
      </trkpt>
      <trkpt lat="43.60658" lon="6.93858">
        <ele>58.195121765137</ele>
        <time>2012-11-18T13:54:14Z</time>
      </trkpt>
      <trkpt lat="43.60664" lon="6.93858">
        <ele>56.957080841064</ele>
        <time>2012-11-18T13:54:16Z</time>
      </trkpt>
      <trkpt lat="43.60671" lon="6.93859">
        <ele>55.689544677734</ele>
        <time>2012-11-18T13:54:18Z</time>
      </trkpt>
      <trkpt lat="43.6068" lon="6.93863">
        <ele>54.539836883545</ele>
        <time>2012-11-18T13:54:21Z</time>
      </trkpt>
      <trkpt lat="43.60683" lon="6.93865">
        <ele>54.352832794189</ele>
        <time>2012-11-18T13:54:22Z</time>
      </trkpt>
      <trkpt lat="43.60698" lon="6.93874">
        <ele>52.309467315674</ele>
        <time>2012-11-18T13:54:28Z</time>
      </trkpt>
      <trkpt lat="43.60705" lon="6.93875">
        <ele>50.782947540283</ele>
        <time>2012-11-18T13:54:32Z</time>
      </trkpt>
      <trkpt lat="43.60704" lon="6.93875">
        <ele>51.048572540283</ele>
        <time>2012-11-18T13:54:40Z</time>
      </trkpt>
      <trkpt lat="43.60711" lon="6.9388">
        <ele>50.000087738037</ele>
        <time>2012-11-18T13:55:05Z</time>
      </trkpt>
      <trkpt lat="43.60714" lon="6.93881">
        <ele>49.388107299805</ele>
        <time>2012-11-18T13:55:07Z</time>
      </trkpt>
      <trkpt lat="43.60719" lon="6.93881">
        <ele>47.961612701416</ele>
        <time>2012-11-18T13:55:10Z</time>
      </trkpt>
      <trkpt lat="43.60729" lon="6.93885">
        <ele>47.167881011963</ele>
        <time>2012-11-18T13:55:15Z</time>
      </trkpt>
      <trkpt lat="43.6073" lon="6.93886">
        <ele>47.277072906494</ele>
        <time>2012-11-18T13:55:16Z</time>
      </trkpt>
      <trkpt lat="43.60732" lon="6.93888">
        <ele>47.244606018066</ele>
        <time>2012-11-18T13:55:19Z</time>
      </trkpt>
      <trkpt lat="43.60732" lon="6.93887">
        <ele>47.20431137085</ele>
        <time>2012-11-18T13:55:20Z</time>
      </trkpt>
      <trkpt lat="43.60733" lon="6.93888">
        <ele>47.158203125</ele>
        <time>2012-11-18T13:55:21Z</time>
      </trkpt>
      <trkpt lat="43.60736" lon="6.9389">
        <ele>47.189990997314</ele>
        <time>2012-11-18T13:55:23Z</time>
      </trkpt>
      <trkpt lat="43.60741" lon="6.93897">
        <ele>47.233695983887</ele>
        <time>2012-11-18T13:55:29Z</time>
      </trkpt>
      <trkpt lat="43.60746" lon="6.93901">
        <ele>46.649959564209</ele>
        <time>2012-11-18T13:55:37Z</time>
      </trkpt>
      <trkpt lat="43.60751" lon="6.93901">
        <ele>46</ele>
        <time>2012-11-18T13:55:42Z</time>
      </trkpt>
      <trkpt lat="43.6075" lon="6.93904">
        <ele>46</ele>
        <time>2012-11-18T13:55:52Z</time>
      </trkpt>
      <trkpt lat="43.60752" lon="6.93905">
        <ele>46</ele>
        <time>2012-11-18T13:56:04Z</time>
      </trkpt>
      <trkpt lat="43.60754" lon="6.9391">
        <ele>46</ele>
        <time>2012-11-18T13:56:08Z</time>
      </trkpt>
      <trkpt lat="43.60754" lon="6.93913">
        <ele>46</ele>
        <time>2012-11-18T13:56:10Z</time>
      </trkpt>
      <trkpt lat="43.60754" lon="6.93915">
        <ele>46</ele>
        <time>2012-11-18T13:56:16Z</time>
      </trkpt>
      <trkpt lat="43.60757" lon="6.93915">
        <ele>46</ele>
        <time>2012-11-18T13:56:38Z</time>
      </trkpt>
      <trkpt lat="43.60761" lon="6.93918">
        <ele>46.115119934082</ele>
        <time>2012-11-18T13:56:45Z</time>
      </trkpt>
      <trkpt lat="43.60762" lon="6.93919">
        <ele>46.130374908447</ele>
        <time>2012-11-18T13:56:46Z</time>
      </trkpt>
      <trkpt lat="43.60766" lon="6.93932">
        <ele>46.702270507812</ele>
        <time>2012-11-18T13:56:50Z</time>
      </trkpt>
      <trkpt lat="43.6077" lon="6.93946">
        <ele>46.881946563721</ele>
        <time>2012-11-18T13:56:55Z</time>
      </trkpt>
      <trkpt lat="43.60771" lon="6.93949">
        <ele>46.906757354736</ele>
        <time>2012-11-18T13:56:56Z</time>
      </trkpt>
      <trkpt lat="43.60771" lon="6.93953">
        <ele>47.067832946777</ele>
        <time>2012-11-18T13:56:57Z</time>
      </trkpt>
      <trkpt lat="43.60771" lon="6.93954">
        <ele>47.205051422119</ele>
        <time>2012-11-18T13:56:59Z</time>
      </trkpt>
      <trkpt lat="43.60769" lon="6.93952">
        <ele>47.331813812256</ele>
        <time>2012-11-18T13:57:04Z</time>
      </trkpt>
      <trkpt lat="43.60769" lon="6.93946">
        <ele>47.037292480469</ele>
        <time>2012-11-18T13:57:10Z</time>
      </trkpt>
      <trkpt lat="43.60769" lon="6.93946">
        <ele>47.024307250977</ele>
        <time>2012-11-18T13:57:17Z</time>
      </trkpt>
      <trkpt lat="43.6077" lon="6.93948">
        <ele>46.968379974365</ele>
        <time>2012-11-18T13:57:22Z</time>
      </trkpt>
      <trkpt lat="43.6077" lon="6.93951">
        <ele>47.113960266113</ele>
        <time>2012-11-18T13:57:27Z</time>
      </trkpt>
      <trkpt lat="43.60769" lon="6.93954">
        <ele>47.444828033447</ele>
        <time>2012-11-18T13:57:34Z</time>
      </trkpt>
      <trkpt lat="43.60767" lon="6.93959">
        <ele>48.080921173096</ele>
        <time>2012-11-18T13:57:37Z</time>
      </trkpt>
      <trkpt lat="43.60767" lon="6.93959">
        <ele>48.295539855957</ele>
        <time>2012-11-18T13:57:38Z</time>
      </trkpt>
      <trkpt lat="43.60766" lon="6.93961">
        <ele>48.456031799316</ele>
        <time>2012-11-18T13:57:39Z</time>
      </trkpt>
      <trkpt lat="43.60767" lon="6.93968">
        <ele>48.7942237854</ele>
        <time>2012-11-18T13:57:45Z</time>
      </trkpt>
      <trkpt lat="43.60767" lon="6.93974">
        <ele>49.135513305664</ele>
        <time>2012-11-18T13:57:50Z</time>
      </trkpt>
      <trkpt lat="43.60769" lon="6.93975">
        <ele>48.743690490723</ele>
        <time>2012-11-18T13:57:52Z</time>
      </trkpt>
      <trkpt lat="43.6077" lon="6.93976">
        <ele>48.590194702148</ele>
        <time>2012-11-18T13:57:54Z</time>
      </trkpt>
      <trkpt lat="43.60773" lon="6.9398">
        <ele>48.014827728271</ele>
        <time>2012-11-18T13:57:56Z</time>
      </trkpt>
      <trkpt lat="43.60774" lon="6.93992">
        <ele>48.170867919922</ele>
        <time>2012-11-18T13:58:01Z</time>
      </trkpt>
      <trkpt lat="43.60776" lon="6.93997">
        <ele>47.817321777344</ele>
        <time>2012-11-18T13:58:03Z</time>
      </trkpt>
      <trkpt lat="43.60778" lon="6.94004">
        <ele>47.278697967529</ele>
        <time>2012-11-18T13:58:06Z</time>
      </trkpt>
      <trkpt lat="43.60781" lon="6.94004">
        <ele>47.276676177979</ele>
        <time>2012-11-18T13:58:07Z</time>
      </trkpt>
      <trkpt lat="43.60791" lon="6.94004">
        <ele>47.141956329346</ele>
        <time>2012-11-18T13:58:11Z</time>
      </trkpt>
      <trkpt lat="43.60793" lon="6.94014">
        <ele>47.433238983154</ele>
        <time>2012-11-18T13:58:14Z</time>
      </trkpt>
      <trkpt lat="43.60797" lon="6.94026">
        <ele>47.586475372314</ele>
        <time>2012-11-18T13:58:18Z</time>
      </trkpt>
      <trkpt lat="43.60804" lon="6.94037">
        <ele>47.188396453857</ele>
        <time>2012-11-18T13:58:23Z</time>
      </trkpt>
      <trkpt lat="43.60807" lon="6.94047">
        <ele>47</ele>
        <time>2012-11-18T13:58:28Z</time>
      </trkpt>
      <trkpt lat="43.60807" lon="6.94053">
        <ele>47</ele>
        <time>2012-11-18T13:58:34Z</time>
      </trkpt>
      <trkpt lat="43.60807" lon="6.94054">
        <ele>47</ele>
        <time>2012-11-18T13:58:35Z</time>
      </trkpt>
      <trkpt lat="43.60809" lon="6.94055">
        <ele>47</ele>
        <time>2012-11-18T13:58:39Z</time>
      </trkpt>
      <trkpt lat="43.60809" lon="6.94054">
        <ele>47</ele>
        <time>2012-11-18T13:58:45Z</time>
      </trkpt>
      <trkpt lat="43.6081" lon="6.94052">
        <ele>47</ele>
        <time>2012-11-18T13:58:52Z</time>
      </trkpt>
      <trkpt lat="43.6081" lon="6.94051">
        <ele>47</ele>
        <time>2012-11-18T13:58:59Z</time>
      </trkpt>
      <trkpt lat="43.60814" lon="6.9404">
        <ele>47</ele>
        <time>2012-11-18T13:59:13Z</time>
      </trkpt>
      <trkpt lat="43.6082" lon="6.94016">
        <ele>47</ele>
        <time>2012-11-18T13:59:18Z</time>
      </trkpt>
      <trkpt lat="43.60829" lon="6.93986">
        <ele>47.849349975586</ele>
        <time>2012-11-18T13:59:24Z</time>
      </trkpt>
      <trkpt lat="43.60849" lon="6.93958">
        <ele>51.207458496094</ele>
        <time>2012-11-18T13:59:31Z</time>
      </trkpt>
      <trkpt lat="43.6086" lon="6.93962">
        <ele>52.240859985352</ele>
        <time>2012-11-18T13:59:34Z</time>
      </trkpt>
      <trkpt lat="43.60865" lon="6.93967">
        <ele>52.206275939941</ele>
        <time>2012-11-18T13:59:36Z</time>
      </trkpt>
      <trkpt lat="43.60873" lon="6.93975">
        <ele>51.862190246582</ele>
        <time>2012-11-18T13:59:40Z</time>
      </trkpt>
      <trkpt lat="43.60882" lon="6.93983">
        <ele>51.527687072754</ele>
        <time>2012-11-18T13:59:47Z</time>
      </trkpt>
      <trkpt lat="43.60885" lon="6.93985">
        <ele>51.489860534668</ele>
        <time>2012-11-18T13:59:49Z</time>
      </trkpt>
      <trkpt lat="43.6089" lon="6.93988">
        <ele>51.459945678711</ele>
        <time>2012-11-18T13:59:52Z</time>
      </trkpt>
      <trkpt lat="43.60908" lon="6.93994">
        <ele>51.36283493042</ele>
        <time>2012-11-18T14:00:02Z</time>
      </trkpt>
      <trkpt lat="43.60926" lon="6.94">
        <ele>51.66259765625</ele>
        <time>2012-11-18T14:00:11Z</time>
      </trkpt>
      <trkpt lat="43.60945" lon="6.94005">
        <ele>52.839057922363</ele>
        <time>2012-11-18T14:00:21Z</time>
      </trkpt>
      <trkpt lat="43.60961" lon="6.94">
        <ele>53.570335388184</ele>
        <time>2012-11-18T14:00:29Z</time>
      </trkpt>
      <trkpt lat="43.60967" lon="6.93987">
        <ele>54.705516815186</ele>
        <time>2012-11-18T14:00:35Z</time>
      </trkpt>
      <trkpt lat="43.60962" lon="6.93975">
        <ele>55.142421722412</ele>
        <time>2012-11-18T14:00:41Z</time>
      </trkpt>
      <trkpt lat="43.6095" lon="6.93966">
        <ele>54.857284545898</ele>
        <time>2012-11-18T14:00:49Z</time>
      </trkpt>
      <trkpt lat="43.60946" lon="6.9396">
        <ele>54.970581054688</ele>
        <time>2012-11-18T14:00:53Z</time>
      </trkpt>
      <trkpt lat="43.60942" lon="6.93954">
        <ele>55.206848144531</ele>
        <time>2012-11-18T14:00:56Z</time>
      </trkpt>
      <trkpt lat="43.60941" lon="6.93951">
        <ele>55.433441162109</ele>
        <time>2012-11-18T14:00:58Z</time>
      </trkpt>
      <trkpt lat="43.60938" lon="6.93937">
        <ele>56.041473388672</ele>
        <time>2012-11-18T14:01:04Z</time>
      </trkpt>
      <trkpt lat="43.60937" lon="6.93917">
        <ele>56.710952758789</ele>
        <time>2012-11-18T14:01:12Z</time>
      </trkpt>
      <trkpt lat="43.60943" lon="6.93906">
        <ele>57.698440551758</ele>
        <time>2012-11-18T14:01:18Z</time>
      </trkpt>
      <trkpt lat="43.60952" lon="6.93905">
        <ele>58.269401550293</ele>
        <time>2012-11-18T14:01:24Z</time>
      </trkpt>
      <trkpt lat="43.60968" lon="6.93899">
        <ele>59.448818206787</ele>
        <time>2012-11-18T14:01:35Z</time>
      </trkpt>
      <trkpt lat="43.60974" lon="6.93884">
        <ele>61.555583953857</ele>
        <time>2012-11-18T14:01:42Z</time>
      </trkpt>
      <trkpt lat="43.60974" lon="6.93871">
        <ele>65.226379394531</ele>
        <time>2012-11-18T14:01:49Z</time>
      </trkpt>
      <trkpt lat="43.60973" lon="6.9387">
        <ele>65.560569763184</ele>
        <time>2012-11-18T14:01:50Z</time>
      </trkpt>
      <trkpt lat="43.60965" lon="6.93854">
        <ele>67.427101135254</ele>
        <time>2012-11-18T14:01:59Z</time>
      </trkpt>
      <trkpt lat="43.60966" lon="6.93843">
        <ele>69.735549926758</ele>
        <time>2012-11-18T14:02:04Z</time>
      </trkpt>
      <trkpt lat="43.60971" lon="6.93829">
        <ele>73.783355712891</ele>
        <time>2012-11-18T14:02:11Z</time>
      </trkpt>
      <trkpt lat="43.60983" lon="6.9382">
        <ele>76.541343688965</ele>
        <time>2012-11-18T14:02:20Z</time>
      </trkpt>
      <trkpt lat="43.60999" lon="6.93821">
        <ele>76.60327911377</ele>
        <time>2012-11-18T14:02:30Z</time>
      </trkpt>
      <trkpt lat="43.61003" lon="6.9382">
        <ele>77.308166503906</ele>
        <time>2012-11-18T14:02:33Z</time>
      </trkpt>
      <trkpt lat="43.61008" lon="6.93821">
        <ele>77.747291564941</ele>
        <time>2012-11-18T14:02:36Z</time>
      </trkpt>
      <trkpt lat="43.61019" lon="6.93819">
        <ele>79.420104980469</ele>
        <time>2012-11-18T14:02:43Z</time>
      </trkpt>
      <trkpt lat="43.61031" lon="6.93807">
        <ele>81.821258544922</ele>
        <time>2012-11-18T14:02:52Z</time>
      </trkpt>
      <trkpt lat="43.61036" lon="6.93795">
        <ele>84.338897705078</ele>
        <time>2012-11-18T14:03:00Z</time>
      </trkpt>
      <trkpt lat="43.6104" lon="6.9378">
        <ele>87.614196777344</ele>
        <time>2012-11-18T14:03:08Z</time>
      </trkpt>
      <trkpt lat="43.61042" lon="6.9376">
        <ele>89.964881896973</ele>
        <time>2012-11-18T14:03:17Z</time>
      </trkpt>
      <trkpt lat="43.61044" lon="6.93742">
        <ele>92.658248901367</ele>
        <time>2012-11-18T14:03:24Z</time>
      </trkpt>
      <trkpt lat="43.61053" lon="6.93733">
        <ele>94.676986694336</ele>
        <time>2012-11-18T14:03:30Z</time>
      </trkpt>
      <trkpt lat="43.61064" lon="6.93728">
        <ele>96.095245361328</ele>
        <time>2012-11-18T14:03:36Z</time>
      </trkpt>
      <trkpt lat="43.61079" lon="6.93722">
        <ele>97.860862731934</ele>
        <time>2012-11-18T14:03:44Z</time>
      </trkpt>
      <trkpt lat="43.61095" lon="6.93717">
        <ele>98.923851013184</ele>
        <time>2012-11-18T14:03:52Z</time>
      </trkpt>
      <trkpt lat="43.61112" lon="6.93719">
        <ele>99.224731445312</ele>
        <time>2012-11-18T14:04:00Z</time>
      </trkpt>
      <trkpt lat="43.61126" lon="6.93729">
        <ele>97.706207275391</ele>
        <time>2012-11-18T14:04:08Z</time>
      </trkpt>
      <trkpt lat="43.61139" lon="6.93727">
        <ele>98.128456115723</ele>
        <time>2012-11-18T14:04:16Z</time>
      </trkpt>
      <trkpt lat="43.61144" lon="6.93725">
        <ele>98.428863525391</ele>
        <time>2012-11-18T14:04:19Z</time>
      </trkpt>
      <trkpt lat="43.61147" lon="6.93723">
        <ele>98.849433898926</ele>
        <time>2012-11-18T14:04:21Z</time>
      </trkpt>
      <trkpt lat="43.6116" lon="6.93708">
        <ele>100.03497314453</ele>
        <time>2012-11-18T14:04:30Z</time>
      </trkpt>
      <trkpt lat="43.6117" lon="6.93696">
        <ele>100.87954711914</ele>
        <time>2012-11-18T14:04:37Z</time>
      </trkpt>
      <trkpt lat="43.61181" lon="6.93686">
        <ele>101</ele>
        <time>2012-11-18T14:04:45Z</time>
      </trkpt>
      <trkpt lat="43.61192" lon="6.93679">
        <ele>101</ele>
        <time>2012-11-18T14:04:52Z</time>
      </trkpt>
      <trkpt lat="43.61208" lon="6.93669">
        <ele>101</ele>
        <time>2012-11-18T14:05:01Z</time>
      </trkpt>
      <trkpt lat="43.61219" lon="6.93664">
        <ele>101</ele>
        <time>2012-11-18T14:05:08Z</time>
      </trkpt>
      <trkpt lat="43.61232" lon="6.93662">
        <ele>101</ele>
        <time>2012-11-18T14:05:14Z</time>
      </trkpt>
      <trkpt lat="43.61245" lon="6.9367">
        <ele>101</ele>
        <time>2012-11-18T14:05:21Z</time>
      </trkpt>
      <trkpt lat="43.61259" lon="6.9367">
        <ele>101.5941696167</ele>
        <time>2012-11-18T14:05:29Z</time>
      </trkpt>
      <trkpt lat="43.61265" lon="6.93662">
        <ele>102.16388702393</ele>
        <time>2012-11-18T14:05:34Z</time>
      </trkpt>
      <trkpt lat="43.61272" lon="6.9365">
        <ele>103.07583618164</ele>
        <time>2012-11-18T14:05:40Z</time>
      </trkpt>
      <trkpt lat="43.61283" lon="6.93631">
        <ele>104.91736602783</ele>
        <time>2012-11-18T14:05:49Z</time>
      </trkpt>
      <trkpt lat="43.61287" lon="6.93626">
        <ele>105.415184021</ele>
        <time>2012-11-18T14:05:55Z</time>
      </trkpt>
      <trkpt lat="43.6129" lon="6.93623">
        <ele>105.85635375977</ele>
        <time>2012-11-18T14:06:42Z</time>
      </trkpt>
      <trkpt lat="43.61296" lon="6.93613">
        <ele>106.87602233887</ele>
        <time>2012-11-18T14:06:46Z</time>
      </trkpt>
      <trkpt lat="43.61298" lon="6.93612">
        <ele>107.19016265869</ele>
        <time>2012-11-18T14:06:47Z</time>
      </trkpt>
      <trkpt lat="43.61305" lon="6.93611">
        <ele>107.91972351074</ele>
        <time>2012-11-18T14:06:50Z</time>
      </trkpt>
      <trkpt lat="43.61311" lon="6.9361">
        <ele>109.93294525147</ele>
        <time>2012-11-18T14:06:53Z</time>
      </trkpt>
      <trkpt lat="43.61324" lon="6.93609">
        <ele>115.00553894043</ele>
        <time>2012-11-18T14:07:01Z</time>
      </trkpt>
      <trkpt lat="43.61328" lon="6.93618">
        <ele>115.27108001709</ele>
        <time>2012-11-18T14:07:05Z</time>
      </trkpt>
      <trkpt lat="43.61328" lon="6.93633">
        <ele>113.40050506592</ele>
        <time>2012-11-18T14:07:08Z</time>
      </trkpt>
      <trkpt lat="43.61338" lon="6.93652">
        <ele>111.09224700928</ele>
        <time>2012-11-18T14:07:12Z</time>
      </trkpt>
      <trkpt lat="43.61351" lon="6.9367">
        <ele>106.94723510742</ele>
        <time>2012-11-18T14:07:16Z</time>
      </trkpt>
      <trkpt lat="43.61353" lon="6.93673">
        <ele>106.40478515625</ele>
        <time>2012-11-18T14:07:17Z</time>
      </trkpt>
      <trkpt lat="43.61358" lon="6.93685">
        <ele>104.52337646484</ele>
        <time>2012-11-18T14:07:20Z</time>
      </trkpt>
      <trkpt lat="43.61367" lon="6.937">
        <ele>102.43308258057</ele>
        <time>2012-11-18T14:07:23Z</time>
      </trkpt>
      <trkpt lat="43.61369" lon="6.93704">
        <ele>101.91809844971</ele>
        <time>2012-11-18T14:07:24Z</time>
      </trkpt>
      <trkpt lat="43.61376" lon="6.93714">
        <ele>100.85208129883</ele>
        <time>2012-11-18T14:07:26Z</time>
      </trkpt>
      <trkpt lat="43.61383" lon="6.93719">
        <ele>100.31649780273</ele>
        <time>2012-11-18T14:07:28Z</time>
      </trkpt>
      <trkpt lat="43.61388" lon="6.93721">
        <ele>100.15170288086</ele>
        <time>2012-11-18T14:07:29Z</time>
      </trkpt>
      <trkpt lat="43.614" lon="6.93731">
        <ele>100</ele>
        <time>2012-11-18T14:07:32Z</time>
      </trkpt>
      <trkpt lat="43.61403" lon="6.93734">
        <ele>100</ele>
        <time>2012-11-18T14:07:33Z</time>
      </trkpt>
      <trkpt lat="43.61405" lon="6.93738">
        <ele>100</ele>
        <time>2012-11-18T14:07:34Z</time>
      </trkpt>
      <trkpt lat="43.61406" lon="6.93742">
        <ele>100</ele>
        <time>2012-11-18T14:07:36Z</time>
      </trkpt>
      <trkpt lat="43.61405" lon="6.93743">
        <ele>100</ele>
        <time>2012-11-18T14:07:42Z</time>
      </trkpt>
      <trkpt lat="43.61405" lon="6.93745">
        <ele>100</ele>
        <time>2012-11-18T14:07:43Z</time>
      </trkpt>
      <trkpt lat="43.61404" lon="6.93748">
        <ele>100</ele>
        <time>2012-11-18T14:07:46Z</time>
      </trkpt>
      <trkpt lat="43.61399" lon="6.93756">
        <ele>100</ele>
        <time>2012-11-18T14:07:59Z</time>
      </trkpt>
      <trkpt lat="43.61401" lon="6.9377">
        <ele>100</ele>
        <time>2012-11-18T14:08:03Z</time>
      </trkpt>
      <trkpt lat="43.61406" lon="6.93774">
        <ele>100</ele>
        <time>2012-11-18T14:08:07Z</time>
      </trkpt>
      <trkpt lat="43.61415" lon="6.93772">
        <ele>100</ele>
        <time>2012-11-18T14:08:10Z</time>
      </trkpt>
      <trkpt lat="43.61431" lon="6.93762">
        <ele>100</ele>
        <time>2012-11-18T14:08:14Z</time>
      </trkpt>
      <trkpt lat="43.61435" lon="6.93763">
        <ele>100</ele>
        <time>2012-11-18T14:08:15Z</time>
      </trkpt>
      <trkpt lat="43.61438" lon="6.93769">
        <ele>100</ele>
        <time>2012-11-18T14:08:17Z</time>
      </trkpt>
      <trkpt lat="43.61434" lon="6.93785">
        <ele>100</ele>
        <time>2012-11-18T14:08:21Z</time>
      </trkpt>
      <trkpt lat="43.61428" lon="6.93787">
        <ele>100</ele>
        <time>2012-11-18T14:08:23Z</time>
      </trkpt>
      <trkpt lat="43.61417" lon="6.93793">
        <ele>100</ele>
        <time>2012-11-18T14:08:27Z</time>
      </trkpt>
      <trkpt lat="43.61411" lon="6.93805">
        <ele>100</ele>
        <time>2012-11-18T14:08:30Z</time>
      </trkpt>
      <trkpt lat="43.61412" lon="6.9381">
        <ele>100</ele>
        <time>2012-11-18T14:08:31Z</time>
      </trkpt>
      <trkpt lat="43.61422" lon="6.93819">
        <ele>100</ele>
        <time>2012-11-18T14:08:34Z</time>
      </trkpt>
      <trkpt lat="43.61431" lon="6.9382">
        <ele>100</ele>
        <time>2012-11-18T14:08:36Z</time>
      </trkpt>
      <trkpt lat="43.61436" lon="6.9382">
        <ele>100</ele>
        <time>2012-11-18T14:08:37Z</time>
      </trkpt>
      <trkpt lat="43.6144" lon="6.93822">
        <ele>100</ele>
        <time>2012-11-18T14:08:38Z</time>
      </trkpt>
      <trkpt lat="43.61447" lon="6.93829">
        <ele>100</ele>
        <time>2012-11-18T14:08:40Z</time>
      </trkpt>
      <trkpt lat="43.61453" lon="6.93842">
        <ele>100</ele>
        <time>2012-11-18T14:08:43Z</time>
      </trkpt>
      <trkpt lat="43.61457" lon="6.93849">
        <ele>100</ele>
        <time>2012-11-18T14:08:45Z</time>
      </trkpt>
      <trkpt lat="43.61469" lon="6.93857">
        <ele>100</ele>
        <time>2012-11-18T14:08:50Z</time>
      </trkpt>
      <trkpt lat="43.61472" lon="6.93857">
        <ele>100</ele>
        <time>2012-11-18T14:08:51Z</time>
      </trkpt>
      <trkpt lat="43.6149" lon="6.93856">
        <ele>100</ele>
        <time>2012-11-18T14:08:58Z</time>
      </trkpt>
      <trkpt lat="43.61502" lon="6.93861">
        <ele>100</ele>
        <time>2012-11-18T14:09:03Z</time>
      </trkpt>
      <trkpt lat="43.61516" lon="6.93864">
        <ele>100</ele>
        <time>2012-11-18T14:09:08Z</time>
      </trkpt>
      <trkpt lat="43.61526" lon="6.93878">
        <ele>100</ele>
        <time>2012-11-18T14:09:14Z</time>
      </trkpt>
      <trkpt lat="43.61539" lon="6.93897">
        <ele>100</ele>
        <time>2012-11-18T14:09:21Z</time>
      </trkpt>
      <trkpt lat="43.61557" lon="6.93912">
        <ele>100</ele>
        <time>2012-11-18T14:09:26Z</time>
      </trkpt>
      <trkpt lat="43.61576" lon="6.93927">
        <ele>100</ele>
        <time>2012-11-18T14:09:30Z</time>
      </trkpt>
      <trkpt lat="43.61593" lon="6.93947">
        <ele>100</ele>
        <time>2012-11-18T14:09:34Z</time>
      </trkpt>
      <trkpt lat="43.61597" lon="6.93956">
        <ele>100</ele>
        <time>2012-11-18T14:09:36Z</time>
      </trkpt>
      <trkpt lat="43.616" lon="6.93965">
        <ele>100</ele>
        <time>2012-11-18T14:09:38Z</time>
      </trkpt>
      <trkpt lat="43.61601" lon="6.93968">
        <ele>100</ele>
        <time>2012-11-18T14:09:39Z</time>
      </trkpt>
      <trkpt lat="43.61605" lon="6.93974">
        <ele>100</ele>
        <time>2012-11-18T14:09:41Z</time>
      </trkpt>
      <trkpt lat="43.61619" lon="6.93981">
        <ele>100</ele>
        <time>2012-11-18T14:09:47Z</time>
      </trkpt>
      <trkpt lat="43.61622" lon="6.93981">
        <ele>100</ele>
        <time>2012-11-18T14:09:48Z</time>
      </trkpt>
      <trkpt lat="43.61634" lon="6.93991">
        <ele>100</ele>
        <time>2012-11-18T14:09:54Z</time>
      </trkpt>
      <trkpt lat="43.61635" lon="6.94009">
        <ele>100</ele>
        <time>2012-11-18T14:10:00Z</time>
      </trkpt>
      <trkpt lat="43.61641" lon="6.94029">
        <ele>100.25610351562</ele>
        <time>2012-11-18T14:10:07Z</time>
      </trkpt>
      <trkpt lat="43.61645" lon="6.94052">
        <ele>105.00196838379</ele>
        <time>2012-11-18T14:10:15Z</time>
      </trkpt>
      <trkpt lat="43.61646" lon="6.94059">
        <ele>106.39209747315</ele>
        <time>2012-11-18T14:10:19Z</time>
      </trkpt>
      <trkpt lat="43.61646" lon="6.94059">
        <ele>106.60367584228</ele>
        <time>2012-11-18T14:10:20Z</time>
      </trkpt>
      <trkpt lat="43.61652" lon="6.94056">
        <ele>106.59181213379</ele>
        <time>2012-11-18T14:10:26Z</time>
      </trkpt>
      <trkpt lat="43.61657" lon="6.94054">
        <ele>106.65635681152</ele>
        <time>2012-11-18T14:10:32Z</time>
      </trkpt>
      <trkpt lat="43.61665" lon="6.94051">
        <ele>106.53404998779</ele>
        <time>2012-11-18T14:10:51Z</time>
      </trkpt>
      <trkpt lat="43.6168" lon="6.94041">
        <ele>104.21535491943</ele>
        <time>2012-11-18T14:10:58Z</time>
      </trkpt>
      <trkpt lat="43.61699" lon="6.94027">
        <ele>101.45456695557</ele>
        <time>2012-11-18T14:11:04Z</time>
      </trkpt>
      <trkpt lat="43.61716" lon="6.94014">
        <ele>106.64786529541</ele>
        <time>2012-11-18T14:11:09Z</time>
      </trkpt>
      <trkpt lat="43.61729" lon="6.94015">
        <ele>109.44464874268</ele>
        <time>2012-11-18T14:11:14Z</time>
      </trkpt>
      <trkpt lat="43.6174" lon="6.94016">
        <ele>110.95841217041</ele>
        <time>2012-11-18T14:11:19Z</time>
      </trkpt>
      <trkpt lat="43.61751" lon="6.94017">
        <ele>112.34719848633</ele>
        <time>2012-11-18T14:11:24Z</time>
      </trkpt>
      <trkpt lat="43.61762" lon="6.94017">
        <ele>113.29639434815</ele>
        <time>2012-11-18T14:11:29Z</time>
      </trkpt>
      <trkpt lat="43.61773" lon="6.94019">
        <ele>114.25657653809</ele>
        <time>2012-11-18T14:11:34Z</time>
      </trkpt>
      <trkpt lat="43.61775" lon="6.9402">
        <ele>114.47143554688</ele>
        <time>2012-11-18T14:11:35Z</time>
      </trkpt>
      <trkpt lat="43.61792" lon="6.94024">
        <ele>116.38851928711</ele>
        <time>2012-11-18T14:11:42Z</time>
      </trkpt>
      <trkpt lat="43.61804" lon="6.94031">
        <ele>117.82532501221</ele>
        <time>2012-11-18T14:11:48Z</time>
      </trkpt>
      <trkpt lat="43.61811" lon="6.94034">
        <ele>118.42419433594</ele>
        <time>2012-11-18T14:11:52Z</time>
      </trkpt>
      <trkpt lat="43.61815" lon="6.94033">
        <ele>118.67138671875</ele>
        <time>2012-11-18T14:11:54Z</time>
      </trkpt>
      <trkpt lat="43.61821" lon="6.94031">
        <ele>119.13830566406</ele>
        <time>2012-11-18T14:11:57Z</time>
      </trkpt>
      <trkpt lat="43.61829" lon="6.9403">
        <ele>119.66015625</ele>
        <time>2012-11-18T14:12:00Z</time>
      </trkpt>
      <trkpt lat="43.61837" lon="6.94032">
        <ele>120</ele>
        <time>2012-11-18T14:12:04Z</time>
      </trkpt>
      <trkpt lat="43.61847" lon="6.94043">
        <ele>120</ele>
        <time>2012-11-18T14:12:09Z</time>
      </trkpt>
      <trkpt lat="43.61859" lon="6.94042">
        <ele>120</ele>
        <time>2012-11-18T14:12:14Z</time>
      </trkpt>
      <trkpt lat="43.6187" lon="6.94035">
        <ele>120</ele>
        <time>2012-11-18T14:12:20Z</time>
      </trkpt>
      <trkpt lat="43.61876" lon="6.94034">
        <ele>120</ele>
        <time>2012-11-18T14:12:23Z</time>
      </trkpt>
      <trkpt lat="43.61878" lon="6.94035">
        <ele>120</ele>
        <time>2012-11-18T14:12:24Z</time>
      </trkpt>
      <trkpt lat="43.61889" lon="6.9404">
        <ele>120</ele>
        <time>2012-11-18T14:12:30Z</time>
      </trkpt>
      <trkpt lat="43.61903" lon="6.94046">
        <ele>120</ele>
        <time>2012-11-18T14:12:38Z</time>
      </trkpt>
      <trkpt lat="43.61914" lon="6.94054">
        <ele>120</ele>
        <time>2012-11-18T14:12:45Z</time>
      </trkpt>
      <trkpt lat="43.61925" lon="6.94063">
        <ele>120</ele>
        <time>2012-11-18T14:12:52Z</time>
      </trkpt>
      <trkpt lat="43.61936" lon="6.94075">
        <ele>120</ele>
        <time>2012-11-18T14:13:00Z</time>
      </trkpt>
      <trkpt lat="43.61949" lon="6.94087">
        <ele>120</ele>
        <time>2012-11-18T14:13:08Z</time>
      </trkpt>
      <trkpt lat="43.61962" lon="6.94096">
        <ele>120</ele>
        <time>2012-11-18T14:13:15Z</time>
      </trkpt>
      <trkpt lat="43.61977" lon="6.94104">
        <ele>120</ele>
        <time>2012-11-18T14:13:22Z</time>
      </trkpt>
      <trkpt lat="43.61992" lon="6.94116">
        <ele>120</ele>
        <time>2012-11-18T14:13:30Z</time>
      </trkpt>
      <trkpt lat="43.62005" lon="6.94124">
        <ele>120</ele>
        <time>2012-11-18T14:13:37Z</time>
      </trkpt>
      <trkpt lat="43.62015" lon="6.94127">
        <ele>120</ele>
        <time>2012-11-18T14:13:44Z</time>
      </trkpt>
      <trkpt lat="43.6203" lon="6.94122">
        <ele>120</ele>
        <time>2012-11-18T14:13:52Z</time>
      </trkpt>
      <trkpt lat="43.62035" lon="6.94123">
        <ele>120</ele>
        <time>2012-11-18T14:13:55Z</time>
      </trkpt>
      <trkpt lat="43.6204" lon="6.94125">
        <ele>120</ele>
        <time>2012-11-18T14:13:57Z</time>
      </trkpt>
      <trkpt lat="43.62044" lon="6.94125">
        <ele>120</ele>
        <time>2012-11-18T14:13:59Z</time>
      </trkpt>
      <trkpt lat="43.62053" lon="6.94125">
        <ele>120</ele>
        <time>2012-11-18T14:14:04Z</time>
      </trkpt>
      <trkpt lat="43.62062" lon="6.94123">
        <ele>120</ele>
        <time>2012-11-18T14:14:08Z</time>
      </trkpt>
      <trkpt lat="43.62076" lon="6.94115">
        <ele>120</ele>
        <time>2012-11-18T14:14:15Z</time>
      </trkpt>
      <trkpt lat="43.62079" lon="6.94113">
        <ele>120</ele>
        <time>2012-11-18T14:14:20Z</time>
      </trkpt>
      <trkpt lat="43.62083" lon="6.94111">
        <ele>120</ele>
        <time>2012-11-18T14:16:15Z</time>
      </trkpt>
      <trkpt lat="43.62083" lon="6.94112">
        <ele>120</ele>
        <time>2012-11-18T14:16:24Z</time>
      </trkpt>
      <trkpt lat="43.62085" lon="6.94111">
        <ele>120.00002288818</ele>
        <time>2012-11-18T14:16:46Z</time>
      </trkpt>
      <trkpt lat="43.62091" lon="6.94111">
        <ele>120.01155853272</ele>
        <time>2012-11-18T14:16:49Z</time>
      </trkpt>
      <trkpt lat="43.62096" lon="6.94119">
        <ele>120</ele>
        <time>2012-11-18T14:16:52Z</time>
      </trkpt>
      <trkpt lat="43.62097" lon="6.94124">
        <ele>120</ele>
        <time>2012-11-18T14:16:53Z</time>
      </trkpt>
      <trkpt lat="43.62098" lon="6.94133">
        <ele>120</ele>
        <time>2012-11-18T14:16:55Z</time>
      </trkpt>
      <trkpt lat="43.62096" lon="6.94141">
        <ele>120.03717803955</ele>
        <time>2012-11-18T14:16:57Z</time>
      </trkpt>
      <trkpt lat="43.62094" lon="6.94148">
        <ele>120.11917877197</ele>
        <time>2012-11-18T14:16:59Z</time>
      </trkpt>
      <trkpt lat="43.62088" lon="6.94166">
        <ele>120.14910888672</ele>
        <time>2012-11-18T14:17:04Z</time>
      </trkpt>
      <trkpt lat="43.62078" lon="6.94183">
        <ele>120</ele>
        <time>2012-11-18T14:17:10Z</time>
      </trkpt>
      <trkpt lat="43.62059" lon="6.94188">
        <ele>120</ele>
        <time>2012-11-18T14:17:17Z</time>
      </trkpt>
      <trkpt lat="43.62029" lon="6.94199">
        <ele>120</ele>
        <time>2012-11-18T14:17:29Z</time>
      </trkpt>
      <trkpt lat="43.62015" lon="6.94208">
        <ele>120</ele>
        <time>2012-11-18T14:17:36Z</time>
      </trkpt>
      <trkpt lat="43.61997" lon="6.94215">
        <ele>120</ele>
        <time>2012-11-18T14:17:45Z</time>
      </trkpt>
      <trkpt lat="43.61985" lon="6.94217">
        <ele>120</ele>
        <time>2012-11-18T14:17:52Z</time>
      </trkpt>
      <trkpt lat="43.61969" lon="6.94215">
        <ele>120.19019317627</ele>
        <time>2012-11-18T14:18:00Z</time>
      </trkpt>
      <trkpt lat="43.61955" lon="6.94212">
        <ele>120.77422332764</ele>
        <time>2012-11-18T14:18:07Z</time>
      </trkpt>
      <trkpt lat="43.61939" lon="6.94207">
        <ele>121.24361419678</ele>
        <time>2012-11-18T14:18:16Z</time>
      </trkpt>
      <trkpt lat="43.61928" lon="6.94206">
        <ele>121.79148864746</ele>
        <time>2012-11-18T14:18:22Z</time>
      </trkpt>
      <trkpt lat="43.61911" lon="6.94207">
        <ele>123.08848571777</ele>
        <time>2012-11-18T14:18:31Z</time>
      </trkpt>
      <trkpt lat="43.61896" lon="6.94208">
        <ele>124.40341186523</ele>
        <time>2012-11-18T14:18:39Z</time>
      </trkpt>
      <trkpt lat="43.61884" lon="6.94198">
        <ele>123.10318756103</ele>
        <time>2012-11-18T14:18:46Z</time>
      </trkpt>
      <trkpt lat="43.61872" lon="6.94184">
        <ele>121.98708343506</ele>
        <time>2012-11-18T14:18:53Z</time>
      </trkpt>
      <trkpt lat="43.61861" lon="6.9417">
        <ele>120.52195739746</ele>
        <time>2012-11-18T14:19:00Z</time>
      </trkpt>
      <trkpt lat="43.61849" lon="6.94159">
        <ele>120</ele>
        <time>2012-11-18T14:19:06Z</time>
      </trkpt>
      <trkpt lat="43.61839" lon="6.94154">
        <ele>120</ele>
        <time>2012-11-18T14:19:11Z</time>
      </trkpt>
      <trkpt lat="43.61827" lon="6.94143">
        <ele>120.17490386963</ele>
        <time>2012-11-18T14:19:19Z</time>
      </trkpt>
      <trkpt lat="43.61821" lon="6.94145">
        <ele>120.46746063232</ele>
        <time>2012-11-18T14:19:23Z</time>
      </trkpt>
      <trkpt lat="43.61821" lon="6.94148">
        <ele>120.71894073486</ele>
        <time>2012-11-18T14:19:25Z</time>
      </trkpt>
      <trkpt lat="43.61825" lon="6.94154">
        <ele>120.81595611572</ele>
        <time>2012-11-18T14:19:30Z</time>
      </trkpt>
      <trkpt lat="43.61829" lon="6.9416">
        <ele>120.64814758301</ele>
        <time>2012-11-18T14:19:34Z</time>
      </trkpt>
      <trkpt lat="43.61831" lon="6.94168">
        <ele>120.68836212158</ele>
        <time>2012-11-18T14:19:38Z</time>
      </trkpt>
      <trkpt lat="43.61834" lon="6.94178">
        <ele>122.9499206543</ele>
        <time>2012-11-18T14:19:45Z</time>
      </trkpt>
      <trkpt lat="43.61835" lon="6.9418">
        <ele>123.25589752197</ele>
        <time>2012-11-18T14:19:46Z</time>
      </trkpt>
      <trkpt lat="43.6184" lon="6.94189">
        <ele>125.04849243164</ele>
        <time>2012-11-18T14:19:54Z</time>
      </trkpt>
      <trkpt lat="43.61842" lon="6.94197">
        <ele>126.77166748047</ele>
        <time>2012-11-18T14:19:59Z</time>
      </trkpt>
      <trkpt lat="43.61842" lon="6.94199">
        <ele>127.26942443848</ele>
        <time>2012-11-18T14:20:00Z</time>
      </trkpt>
      <trkpt lat="43.61848" lon="6.94215">
        <ele>130.79824829102</ele>
        <time>2012-11-18T14:20:07Z</time>
      </trkpt>
      <trkpt lat="43.61851" lon="6.94222">
        <ele>132.49089050293</ele>
        <time>2012-11-18T14:20:10Z</time>
      </trkpt>
      <trkpt lat="43.61852" lon="6.94229">
        <ele>133.44898986816</ele>
        <time>2012-11-18T14:20:13Z</time>
      </trkpt>
      <trkpt lat="43.61856" lon="6.94248">
        <ele>135.62330627441</ele>
        <time>2012-11-18T14:20:20Z</time>
      </trkpt>
      <trkpt lat="43.61861" lon="6.94262">
        <ele>137.14508056641</ele>
        <time>2012-11-18T14:20:26Z</time>
      </trkpt>
      <trkpt lat="43.61865" lon="6.94274">
        <ele>138.95806884766</ele>
        <time>2012-11-18T14:20:31Z</time>
      </trkpt>
      <trkpt lat="43.61872" lon="6.94294">
        <ele>139.66291809082</ele>
        <time>2012-11-18T14:20:38Z</time>
      </trkpt>
      <trkpt lat="43.6188" lon="6.94318">
        <ele>140</ele>
        <time>2012-11-18T14:20:44Z</time>
      </trkpt>
      <trkpt lat="43.61883" lon="6.94341">
        <ele>140</ele>
        <time>2012-11-18T14:20:50Z</time>
      </trkpt>
      <trkpt lat="43.61881" lon="6.94354">
        <ele>140</ele>
        <time>2012-11-18T14:20:56Z</time>
      </trkpt>
      <trkpt lat="43.61877" lon="6.94372">
        <ele>141.71499633789</ele>
        <time>2012-11-18T14:21:05Z</time>
      </trkpt>
      <trkpt lat="43.61874" lon="6.94381">
        <ele>143.1291809082</ele>
        <time>2012-11-18T14:21:12Z</time>
      </trkpt>
      <trkpt lat="43.61874" lon="6.94381">
        <ele>143.2137298584</ele>
        <time>2012-11-18T14:21:13Z</time>
      </trkpt>
      <trkpt lat="43.61871" lon="6.94387">
        <ele>144.09677124023</ele>
        <time>2012-11-18T14:21:19Z</time>
      </trkpt>
      <trkpt lat="43.61868" lon="6.94386">
        <ele>143.81852722168</ele>
        <time>2012-11-18T14:21:25Z</time>
      </trkpt>
      <trkpt lat="43.61865" lon="6.94385">
        <ele>143.54934692383</ele>
        <time>2012-11-18T14:21:31Z</time>
      </trkpt>
      <trkpt lat="43.61866" lon="6.94389">
        <ele>144.17590332031</ele>
        <time>2012-11-18T14:22:14Z</time>
      </trkpt>
      <trkpt lat="43.61864" lon="6.94387">
        <ele>143.81484985352</ele>
        <time>2012-11-18T14:23:06Z</time>
      </trkpt>
      <trkpt lat="43.61863" lon="6.94393">
        <ele>144.05230712891</ele>
        <time>2012-11-18T14:23:21Z</time>
      </trkpt>
      <trkpt lat="43.61862" lon="6.94395">
        <ele>144.02484130859</ele>
        <time>2012-11-18T14:23:26Z</time>
      </trkpt>
      <trkpt lat="43.61861" lon="6.94399">
        <ele>143.99737548828</ele>
        <time>2012-11-18T14:23:39Z</time>
      </trkpt>
      <trkpt lat="43.61863" lon="6.94386">
        <ele>143.69828796387</ele>
        <time>2012-11-18T14:24:24Z</time>
      </trkpt>
      <trkpt lat="43.61859" lon="6.94384">
        <ele>143.24647521973</ele>
        <time>2012-11-18T14:24:27Z</time>
      </trkpt>
      <trkpt lat="43.6185" lon="6.94377">
        <ele>142.03309631348</ele>
        <time>2012-11-18T14:24:33Z</time>
      </trkpt>
      <trkpt lat="43.6184" lon="6.94366">
        <ele>140.59033203125</ele>
        <time>2012-11-18T14:24:39Z</time>
      </trkpt>
      <trkpt lat="43.61826" lon="6.9435">
        <ele>140</ele>
        <time>2012-11-18T14:24:45Z</time>
      </trkpt>
      <trkpt lat="43.61815" lon="6.94336">
        <ele>140</ele>
        <time>2012-11-18T14:24:52Z</time>
      </trkpt>
      <trkpt lat="43.61809" lon="6.94319">
        <ele>140</ele>
        <time>2012-11-18T14:24:58Z</time>
      </trkpt>
      <trkpt lat="43.61798" lon="6.94299">
        <ele>140</ele>
        <time>2012-11-18T14:25:04Z</time>
      </trkpt>
      <trkpt lat="43.61788" lon="6.94272">
        <ele>140</ele>
        <time>2012-11-18T14:25:11Z</time>
      </trkpt>
      <trkpt lat="43.61789" lon="6.94254">
        <ele>140</ele>
        <time>2012-11-18T14:25:15Z</time>
      </trkpt>
      <trkpt lat="43.61782" lon="6.94233">
        <ele>140</ele>
        <time>2012-11-18T14:25:20Z</time>
      </trkpt>
      <trkpt lat="43.61775" lon="6.94215">
        <ele>140</ele>
        <time>2012-11-18T14:25:24Z</time>
      </trkpt>
      <trkpt lat="43.61766" lon="6.94206">
        <ele>140</ele>
        <time>2012-11-18T14:25:27Z</time>
      </trkpt>
      <trkpt lat="43.61764" lon="6.94202">
        <ele>140</ele>
        <time>2012-11-18T14:25:28Z</time>
      </trkpt>
      <trkpt lat="43.61749" lon="6.94177">
        <ele>135.76290893555</ele>
        <time>2012-11-18T14:25:34Z</time>
      </trkpt>
      <trkpt lat="43.61745" lon="6.94174">
        <ele>134.06192016602</ele>
        <time>2012-11-18T14:25:35Z</time>
      </trkpt>
      <trkpt lat="43.61737" lon="6.9417">
        <ele>130.7421875</ele>
        <time>2012-11-18T14:25:37Z</time>
      </trkpt>
      <trkpt lat="43.61721" lon="6.94163">
        <ele>125.49758148193</ele>
        <time>2012-11-18T14:25:42Z</time>
      </trkpt>
      <trkpt lat="43.61715" lon="6.94153">
        <ele>124.02144622803</ele>
        <time>2012-11-18T14:25:46Z</time>
      </trkpt>
      <trkpt lat="43.61709" lon="6.94144">
        <ele>122.79839324951</ele>
        <time>2012-11-18T14:25:50Z</time>
      </trkpt>
      <trkpt lat="43.61702" lon="6.94144">
        <ele>121.96812438965</ele>
        <time>2012-11-18T14:25:53Z</time>
      </trkpt>
      <trkpt lat="43.61699" lon="6.94146">
        <ele>121.51543426514</ele>
        <time>2012-11-18T14:25:54Z</time>
      </trkpt>
      <trkpt lat="43.61684" lon="6.9415">
        <ele>121</ele>
        <time>2012-11-18T14:25:57Z</time>
      </trkpt>
      <trkpt lat="43.6167" lon="6.94157">
        <ele>121</ele>
        <time>2012-11-18T14:26:01Z</time>
      </trkpt>
      <trkpt lat="43.61662" lon="6.94165">
        <ele>120.81506347656</ele>
        <time>2012-11-18T14:26:06Z</time>
      </trkpt>
      <trkpt lat="43.61662" lon="6.94166">
        <ele>120.81506347656</ele>
        <time>2012-11-18T14:26:12Z</time>
      </trkpt>
      <trkpt lat="43.61659" lon="6.94165">
        <ele>120.73266601562</ele>
        <time>2012-11-18T14:26:19Z</time>
      </trkpt>
      <trkpt lat="43.61655" lon="6.94171">
        <ele>120.27973175049</ele>
        <time>2012-11-18T14:26:22Z</time>
      </trkpt>
      <trkpt lat="43.61653" lon="6.94177">
        <ele>119.57289123535</ele>
        <time>2012-11-18T14:26:24Z</time>
      </trkpt>
      <trkpt lat="43.61647" lon="6.94187">
        <ele>117.76176452637</ele>
        <time>2012-11-18T14:26:27Z</time>
      </trkpt>
      <trkpt lat="43.61645" lon="6.94187">
        <ele>117.35015106201</ele>
        <time>2012-11-18T14:26:28Z</time>
      </trkpt>
      <trkpt lat="43.61641" lon="6.9418">
        <ele>117.85544586182</ele>
        <time>2012-11-18T14:26:30Z</time>
      </trkpt>
      <trkpt lat="43.61635" lon="6.94155">
        <ele>118.80289459228</ele>
        <time>2012-11-18T14:26:35Z</time>
      </trkpt>
      <trkpt lat="43.61635" lon="6.9415">
        <ele>118.9658126831</ele>
        <time>2012-11-18T14:26:36Z</time>
      </trkpt>
      <trkpt lat="43.61635" lon="6.94141">
        <ele>119.05178833008</ele>
        <time>2012-11-18T14:26:38Z</time>
      </trkpt>
      <trkpt lat="43.61626" lon="6.94139">
        <ele>116.85620117188</ele>
        <time>2012-11-18T14:26:41Z</time>
      </trkpt>
      <trkpt lat="43.6162" lon="6.94144">
        <ele>115.09993743897</ele>
        <time>2012-11-18T14:26:43Z</time>
      </trkpt>
      <trkpt lat="43.61612" lon="6.94153">
        <ele>112.25114440918</ele>
        <time>2012-11-18T14:26:46Z</time>
      </trkpt>
      <trkpt lat="43.61607" lon="6.94168">
        <ele>110.18598937988</ele>
        <time>2012-11-18T14:26:50Z</time>
      </trkpt>
      <trkpt lat="43.61603" lon="6.94167">
        <ele>109.85124969482</ele>
        <time>2012-11-18T14:26:52Z</time>
      </trkpt>
      <trkpt lat="43.61602" lon="6.94162">
        <ele>109.83764648438</ele>
        <time>2012-11-18T14:26:53Z</time>
      </trkpt>
      <trkpt lat="43.61597" lon="6.94154">
        <ele>109.35098266602</ele>
        <time>2012-11-18T14:26:57Z</time>
      </trkpt>
      <trkpt lat="43.61592" lon="6.94147">
        <ele>108.78372192383</ele>
        <time>2012-11-18T14:27:06Z</time>
      </trkpt>
      <trkpt lat="43.61591" lon="6.9414">
        <ele>108.53454589844</ele>
        <time>2012-11-18T14:27:11Z</time>
      </trkpt>
      <trkpt lat="43.6159" lon="6.94139">
        <ele>108.47576904297</ele>
        <time>2012-11-18T14:27:12Z</time>
      </trkpt>
      <trkpt lat="43.6159" lon="6.94138">
        <ele>108.41102600098</ele>
        <time>2012-11-18T14:27:13Z</time>
      </trkpt>
      <trkpt lat="43.6159" lon="6.94135">
        <ele>108.04572296143</ele>
        <time>2012-11-18T14:27:16Z</time>
      </trkpt>
      <trkpt lat="43.6159" lon="6.94134">
        <ele>108.08136749268</ele>
        <time>2012-11-18T14:27:23Z</time>
      </trkpt>
      <trkpt lat="43.61587" lon="6.94135">
        <ele>107.53556823731</ele>
        <time>2012-11-18T14:27:47Z</time>
      </trkpt>
      <trkpt lat="43.61579" lon="6.94129">
        <ele>106.16850280762</ele>
        <time>2012-11-18T14:28:12Z</time>
      </trkpt>
      <trkpt lat="43.61564" lon="6.9412">
        <ele>105.40809631348</ele>
        <time>2012-11-18T14:28:16Z</time>
      </trkpt>
      <trkpt lat="43.61547" lon="6.94112">
        <ele>105.01306915283</ele>
        <time>2012-11-18T14:28:21Z</time>
      </trkpt>
      <trkpt lat="43.61537" lon="6.94104">
        <ele>104.48828125</ele>
        <time>2012-11-18T14:28:26Z</time>
      </trkpt>
      <trkpt lat="43.61525" lon="6.94093">
        <ele>103.70550537109</ele>
        <time>2012-11-18T14:28:33Z</time>
      </trkpt>
      <trkpt lat="43.61518" lon="6.9409">
        <ele>103.47204589844</ele>
        <time>2012-11-18T14:28:37Z</time>
      </trkpt>
      <trkpt lat="43.61516" lon="6.94091">
        <ele>103.53727722168</ele>
        <time>2012-11-18T14:28:38Z</time>
      </trkpt>
      <trkpt lat="43.61508" lon="6.94088">
        <ele>103.33471679688</ele>
        <time>2012-11-18T14:28:42Z</time>
      </trkpt>
      <trkpt lat="43.61502" lon="6.94083">
        <ele>102.97166442871</ele>
        <time>2012-11-18T14:28:45Z</time>
      </trkpt>
      <trkpt lat="43.61498" lon="6.94079">
        <ele>102.78047943115</ele>
        <time>2012-11-18T14:28:47Z</time>
      </trkpt>
      <trkpt lat="43.61495" lon="6.94075">
        <ele>102.57559204102</ele>
        <time>2012-11-18T14:28:49Z</time>
      </trkpt>
      <trkpt lat="43.61491" lon="6.94074">
        <ele>102.44258117676</ele>
        <time>2012-11-18T14:28:51Z</time>
      </trkpt>
      <trkpt lat="43.61486" lon="6.94073">
        <ele>102.31799316406</ele>
        <time>2012-11-18T14:28:54Z</time>
      </trkpt>
      <trkpt lat="43.61483" lon="6.94076">
        <ele>102.2744064331</ele>
        <time>2012-11-18T14:28:58Z</time>
      </trkpt>
      <trkpt lat="43.61483" lon="6.94071">
        <ele>102.22487640381</ele>
        <time>2012-11-18T14:29:05Z</time>
      </trkpt>
      <trkpt lat="43.61481" lon="6.94069">
        <ele>102.15244293213</ele>
        <time>2012-11-18T14:29:19Z</time>
      </trkpt>
      <trkpt lat="43.61478" lon="6.94069">
        <ele>102.09546661377</ele>
        <time>2012-11-18T14:29:25Z</time>
      </trkpt>
      <trkpt lat="43.61473" lon="6.94071">
        <ele>102.00978851318</ele>
        <time>2012-11-18T14:29:34Z</time>
      </trkpt>
      <trkpt lat="43.61469" lon="6.94074">
        <ele>102.45732879639</ele>
        <time>2012-11-18T14:29:43Z</time>
      </trkpt>
      <trkpt lat="43.61469" lon="6.94075">
        <ele>102.53205871582</ele>
        <time>2012-11-18T14:29:49Z</time>
      </trkpt>
      <trkpt lat="43.61465" lon="6.94076">
        <ele>103.14509582519</ele>
        <time>2012-11-18T14:29:57Z</time>
      </trkpt>
      <trkpt lat="43.61457" lon="6.9408">
        <ele>104.61363220215</ele>
        <time>2012-11-18T14:30:08Z</time>
      </trkpt>
      <trkpt lat="43.61451" lon="6.9408">
        <ele>105.62118530273</ele>
        <time>2012-11-18T14:30:16Z</time>
      </trkpt>
      <trkpt lat="43.61443" lon="6.94078">
        <ele>107.17718505859</ele>
        <time>2012-11-18T14:30:25Z</time>
      </trkpt>
      <trkpt lat="43.61438" lon="6.94079">
        <ele>108.53553009033</ele>
        <time>2012-11-18T14:30:32Z</time>
      </trkpt>
      <trkpt lat="43.61433" lon="6.9408">
        <ele>110.12480926514</ele>
        <time>2012-11-18T14:30:39Z</time>
      </trkpt>
      <trkpt lat="43.61433" lon="6.9408">
        <ele>110.12480926514</ele>
        <time>2012-11-18T14:30:49Z</time>
      </trkpt>
      <trkpt lat="43.61428" lon="6.94081">
        <ele>111.6402053833</ele>
        <time>2012-11-18T14:31:07Z</time>
      </trkpt>
      <trkpt lat="43.61425" lon="6.9408">
        <ele>112.35758972168</ele>
        <time>2012-11-18T14:31:14Z</time>
      </trkpt>
      <trkpt lat="43.61425" lon="6.9408">
        <ele>112.33895874023</ele>
        <time>2012-11-18T14:31:24Z</time>
      </trkpt>
      <trkpt lat="43.61418" lon="6.94077">
        <ele>114.04943084717</ele>
        <time>2012-11-18T14:33:19Z</time>
      </trkpt>
      <trkpt lat="43.61414" lon="6.94076">
        <ele>114.7560043335</ele>
        <time>2012-11-18T14:33:21Z</time>
      </trkpt>
      <trkpt lat="43.61404" lon="6.94075">
        <ele>116.80001068115</ele>
        <time>2012-11-18T14:33:25Z</time>
      </trkpt>
      <trkpt lat="43.6139" lon="6.94076">
        <ele>119.70488739014</ele>
        <time>2012-11-18T14:33:30Z</time>
      </trkpt>
      <trkpt lat="43.61387" lon="6.94074">
        <ele>120</ele>
        <time>2012-11-18T14:33:31Z</time>
      </trkpt>
      <trkpt lat="43.61374" lon="6.94071">
        <ele>120</ele>
        <time>2012-11-18T14:33:35Z</time>
      </trkpt>
      <trkpt lat="43.6137" lon="6.94072">
        <ele>120</ele>
        <time>2012-11-18T14:33:36Z</time>
      </trkpt>
      <trkpt lat="43.61356" lon="6.94078">
        <ele>120</ele>
        <time>2012-11-18T14:33:40Z</time>
      </trkpt>
      <trkpt lat="43.61354" lon="6.94081">
        <ele>120</ele>
        <time>2012-11-18T14:33:41Z</time>
      </trkpt>
      <trkpt lat="43.61346" lon="6.94089">
        <ele>120</ele>
        <time>2012-11-18T14:33:45Z</time>
      </trkpt>
      <trkpt lat="43.6134" lon="6.94088">
        <ele>120</ele>
        <time>2012-11-18T14:33:49Z</time>
      </trkpt>
      <trkpt lat="43.61339" lon="6.94088">
        <ele>120</ele>
        <time>2012-11-18T14:33:50Z</time>
      </trkpt>
      <trkpt lat="43.6134" lon="6.94088">
        <ele>120</ele>
        <time>2012-11-18T14:33:54Z</time>
      </trkpt>
      <trkpt lat="43.61338" lon="6.9409">
        <ele>120</ele>
        <time>2012-11-18T14:33:57Z</time>
      </trkpt>
      <trkpt lat="43.61336" lon="6.94093">
        <ele>120</ele>
        <time>2012-11-18T14:33:59Z</time>
      </trkpt>
      <trkpt lat="43.61334" lon="6.94093">
        <ele>120</ele>
        <time>2012-11-18T14:34:00Z</time>
      </trkpt>
      <trkpt lat="43.6133" lon="6.94088">
        <ele>120</ele>
        <time>2012-11-18T14:34:02Z</time>
      </trkpt>
      <trkpt lat="43.61324" lon="6.94086">
        <ele>120</ele>
        <time>2012-11-18T14:34:05Z</time>
      </trkpt>
      <trkpt lat="43.61316" lon="6.94093">
        <ele>120</ele>
        <time>2012-11-18T14:34:09Z</time>
      </trkpt>
      <trkpt lat="43.61314" lon="6.94095">
        <ele>120</ele>
        <time>2012-11-18T14:34:10Z</time>
      </trkpt>
      <trkpt lat="43.6131" lon="6.94105">
        <ele>120</ele>
        <time>2012-11-18T14:34:13Z</time>
      </trkpt>
      <trkpt lat="43.6131" lon="6.94109">
        <ele>120</ele>
        <time>2012-11-18T14:34:14Z</time>
      </trkpt>
      <trkpt lat="43.61309" lon="6.94112">
        <ele>119.54468536377</ele>
        <time>2012-11-18T14:34:15Z</time>
      </trkpt>
      <trkpt lat="43.61307" lon="6.94113">
        <ele>119.20764923096</ele>
        <time>2012-11-18T14:34:17Z</time>
      </trkpt>
      <trkpt lat="43.61305" lon="6.94111">
        <ele>119.88567352295</ele>
        <time>2012-11-18T14:34:36Z</time>
      </trkpt>
      <trkpt lat="43.61304" lon="6.94101">
        <ele>119.65412139893</ele>
        <time>2012-11-18T14:34:39Z</time>
      </trkpt>
      <trkpt lat="43.6131" lon="6.94081">
        <ele>119.86772155762</ele>
        <time>2012-11-18T14:34:43Z</time>
      </trkpt>
      <trkpt lat="43.61325" lon="6.94053">
        <ele>118.69330596924</ele>
        <time>2012-11-18T14:34:48Z</time>
      </trkpt>
      <trkpt lat="43.61337" lon="6.94036">
        <ele>115.26792144775</ele>
        <time>2012-11-18T14:34:51Z</time>
      </trkpt>
      <trkpt lat="43.61345" lon="6.94026">
        <ele>113.1526260376</ele>
        <time>2012-11-18T14:34:53Z</time>
      </trkpt>
      <trkpt lat="43.61362" lon="6.94006">
        <ele>110.90032958984</ele>
        <time>2012-11-18T14:34:58Z</time>
      </trkpt>
      <trkpt lat="43.6137" lon="6.94">
        <ele>109.98063659668</ele>
        <time>2012-11-18T14:35:00Z</time>
      </trkpt>
      <trkpt lat="43.61375" lon="6.93997">
        <ele>109.37295532227</ele>
        <time>2012-11-18T14:35:02Z</time>
      </trkpt>
      <trkpt lat="43.61381" lon="6.93993">
        <ele>108.55928039551</ele>
        <time>2012-11-18T14:35:06Z</time>
      </trkpt>
      <trkpt lat="43.61382" lon="6.93994">
        <ele>108.61077880859</ele>
        <time>2012-11-18T14:35:08Z</time>
      </trkpt>
      <trkpt lat="43.61382" lon="6.93993">
        <ele>108.42538452148</ele>
        <time>2012-11-18T14:35:11Z</time>
      </trkpt>
      <trkpt lat="43.61388" lon="6.93987">
        <ele>107.15852355957</ele>
        <time>2012-11-18T14:35:22Z</time>
      </trkpt>
      <trkpt lat="43.61396" lon="6.93983">
        <ele>105.6960144043</ele>
        <time>2012-11-18T14:35:26Z</time>
      </trkpt>
      <trkpt lat="43.61398" lon="6.93981">
        <ele>105.08967590332</ele>
        <time>2012-11-18T14:35:28Z</time>
      </trkpt>
      <trkpt lat="43.61398" lon="6.93978">
        <ele>104.58209228516</ele>
        <time>2012-11-18T14:35:29Z</time>
      </trkpt>
      <trkpt lat="43.61396" lon="6.93969">
        <ele>103.10038757324</ele>
        <time>2012-11-18T14:35:32Z</time>
      </trkpt>
      <trkpt lat="43.61395" lon="6.93966">
        <ele>102.79737854004</ele>
        <time>2012-11-18T14:35:33Z</time>
      </trkpt>
      <trkpt lat="43.6139" lon="6.93964">
        <ele>102.69683074951</ele>
        <time>2012-11-18T14:35:35Z</time>
      </trkpt>
      <trkpt lat="43.61375" lon="6.9396">
        <ele>102.30853271484</ele>
        <time>2012-11-18T14:35:39Z</time>
      </trkpt>
      <trkpt lat="43.6137" lon="6.93954">
        <ele>101.36782836914</ele>
        <time>2012-11-18T14:35:42Z</time>
      </trkpt>
      <trkpt lat="43.61368" lon="6.93953">
        <ele>101.1618347168</ele>
        <time>2012-11-18T14:35:44Z</time>
      </trkpt>
      <trkpt lat="43.61367" lon="6.93951">
        <ele>100.99017333984</ele>
        <time>2012-11-18T14:35:45Z</time>
      </trkpt>
      <trkpt lat="43.61367" lon="6.9395">
        <ele>100.76358032227</ele>
        <time>2012-11-18T14:35:46Z</time>
      </trkpt>
      <trkpt lat="43.61365" lon="6.93941">
        <ele>100</ele>
        <time>2012-11-18T14:35:50Z</time>
      </trkpt>
      <trkpt lat="43.61362" lon="6.93938">
        <ele>100</ele>
        <time>2012-11-18T14:35:54Z</time>
      </trkpt>
      <trkpt lat="43.61362" lon="6.93937">
        <ele>100</ele>
        <time>2012-11-18T14:36:07Z</time>
      </trkpt>
      <trkpt lat="43.61361" lon="6.93935">
        <ele>99.993530273438</ele>
        <time>2012-11-18T14:36:15Z</time>
      </trkpt>
      <trkpt lat="43.61359" lon="6.93934">
        <ele>99.9111328125</ele>
        <time>2012-11-18T14:36:26Z</time>
      </trkpt>
      <trkpt lat="43.61356" lon="6.93934">
        <ele>99.815002441406</ele>
        <time>2012-11-18T14:36:28Z</time>
      </trkpt>
      <trkpt lat="43.61353" lon="6.93927">
        <ele>99.69140625</ele>
        <time>2012-11-18T14:36:31Z</time>
      </trkpt>
      <trkpt lat="43.61353" lon="6.93922">
        <ele>99.718872070312</ele>
        <time>2012-11-18T14:36:35Z</time>
      </trkpt>
      <trkpt lat="43.61354" lon="6.93923">
        <ele>99.760070800781</ele>
        <time>2012-11-18T14:36:41Z</time>
      </trkpt>
      <trkpt lat="43.61358" lon="6.93921">
        <ele>99.883666992188</ele>
        <time>2012-11-18T14:36:49Z</time>
      </trkpt>
      <trkpt lat="43.61359" lon="6.93919">
        <ele>99.924865722656</ele>
        <time>2012-11-18T14:36:55Z</time>
      </trkpt>
      <trkpt lat="43.61362" lon="6.93918">
        <ele>100</ele>
        <time>2012-11-18T14:37:00Z</time>
      </trkpt>
      <trkpt lat="43.61362" lon="6.93917">
        <ele>100</ele>
        <time>2012-11-18T14:37:01Z</time>
      </trkpt>
      <trkpt lat="43.61367" lon="6.93911">
        <ele>100</ele>
        <time>2012-11-18T14:37:05Z</time>
      </trkpt>
      <trkpt lat="43.61366" lon="6.93909">
        <ele>100</ele>
        <time>2012-11-18T14:37:09Z</time>
      </trkpt>
      <trkpt lat="43.61362" lon="6.93907">
        <ele>100</ele>
        <time>2012-11-18T14:37:14Z</time>
      </trkpt>
      <trkpt lat="43.61354" lon="6.93909">
        <ele>99.760070800781</ele>
        <time>2012-11-18T14:37:20Z</time>
      </trkpt>
      <trkpt lat="43.61353" lon="6.93909">
        <ele>99.718872070312</ele>
        <time>2012-11-18T14:37:21Z</time>
      </trkpt>
      <trkpt lat="43.61353" lon="6.9391">
        <ele>99.705139160156</ele>
        <time>2012-11-18T14:37:22Z</time>
      </trkpt>
      <trkpt lat="43.61348" lon="6.93914">
        <ele>99.540344238281</ele>
        <time>2012-11-18T14:37:26Z</time>
      </trkpt>
      <trkpt lat="43.61337" lon="6.93921">
        <ele>99.14208984375</ele>
        <time>2012-11-18T14:37:30Z</time>
      </trkpt>
      <trkpt lat="43.61323" lon="6.93934">
        <ele>98.042533874512</ele>
        <time>2012-11-18T14:37:34Z</time>
      </trkpt>
      <trkpt lat="43.61314" lon="6.93938">
        <ele>97.08366394043</ele>
        <time>2012-11-18T14:37:38Z</time>
      </trkpt>
      <trkpt lat="43.61305" lon="6.93941">
        <ele>96.052398681641</ele>
        <time>2012-11-18T14:37:41Z</time>
      </trkpt>
      <trkpt lat="43.61279" lon="6.93952">
        <ele>95.188812255859</ele>
        <time>2012-11-18T14:37:46Z</time>
      </trkpt>
      <trkpt lat="43.61273" lon="6.93953">
        <ele>94.685104370117</ele>
        <time>2012-11-18T14:37:47Z</time>
      </trkpt>
      <trkpt lat="43.61256" lon="6.9395">
        <ele>92.215728759766</ele>
        <time>2012-11-18T14:37:50Z</time>
      </trkpt>
      <trkpt lat="43.61251" lon="6.93948">
        <ele>91.443870544434</ele>
        <time>2012-11-18T14:37:51Z</time>
      </trkpt>
      <trkpt lat="43.6124" lon="6.93941">
        <ele>89.15510559082</ele>
        <time>2012-11-18T14:37:54Z</time>
      </trkpt>
      <trkpt lat="43.61237" lon="6.9394">
        <ele>88.735641479492</ele>
        <time>2012-11-18T14:37:55Z</time>
      </trkpt>
      <trkpt lat="43.61226" lon="6.9394">
        <ele>87.211967468262</ele>
        <time>2012-11-18T14:37:58Z</time>
      </trkpt>
      <trkpt lat="43.61222" lon="6.93939">
        <ele>86.456909179688</ele>
        <time>2012-11-18T14:37:59Z</time>
      </trkpt>
      <trkpt lat="43.61217" lon="6.93938">
        <ele>85.229522705078</ele>
        <time>2012-11-18T14:38:00Z</time>
      </trkpt>
      <trkpt lat="43.61206" lon="6.93935">
        <ele>82.550979614258</ele>
        <time>2012-11-18T14:38:02Z</time>
      </trkpt>
      <trkpt lat="43.612" lon="6.93933">
        <ele>81.2197265625</ele>
        <time>2012-11-18T14:38:03Z</time>
      </trkpt>
      <trkpt lat="43.61195" lon="6.9393">
        <ele>80.035713195801</ele>
        <time>2012-11-18T14:38:04Z</time>
      </trkpt>
      <trkpt lat="43.61182" lon="6.9393">
        <ele>80</ele>
        <time>2012-11-18T14:38:07Z</time>
      </trkpt>
      <trkpt lat="43.61169" lon="6.93931">
        <ele>80</ele>
        <time>2012-11-18T14:38:11Z</time>
      </trkpt>
      <trkpt lat="43.61167" lon="6.93933">
        <ele>80</ele>
        <time>2012-11-18T14:38:12Z</time>
      </trkpt>
      <trkpt lat="43.61157" lon="6.93942">
        <ele>80</ele>
        <time>2012-11-18T14:38:17Z</time>
      </trkpt>
      <trkpt lat="43.61153" lon="6.93945">
        <ele>80</ele>
        <time>2012-11-18T14:38:21Z</time>
      </trkpt>
      <trkpt lat="43.61152" lon="6.93946">
        <ele>80</ele>
        <time>2012-11-18T14:38:23Z</time>
      </trkpt>
      <trkpt lat="43.61148" lon="6.9395">
        <ele>80</ele>
        <time>2012-11-18T14:38:27Z</time>
      </trkpt>
      <trkpt lat="43.61148" lon="6.9395">
        <ele>80</ele>
        <time>2012-11-18T14:38:28Z</time>
      </trkpt>
      <trkpt lat="43.61146" lon="6.93949">
        <ele>80</ele>
        <time>2012-11-18T14:38:37Z</time>
      </trkpt>
      <trkpt lat="43.61145" lon="6.93948">
        <ele>80</ele>
        <time>2012-11-18T14:38:42Z</time>
      </trkpt>
      <trkpt lat="43.61136" lon="6.93945">
        <ele>80</ele>
        <time>2012-11-18T14:39:07Z</time>
      </trkpt>
      <trkpt lat="43.61119" lon="6.93934">
        <ele>80</ele>
        <time>2012-11-18T14:39:12Z</time>
      </trkpt>
      <trkpt lat="43.61098" lon="6.93929">
        <ele>79.517822265625</ele>
        <time>2012-11-18T14:39:17Z</time>
      </trkpt>
      <trkpt lat="43.61086" lon="6.93928">
        <ele>79.092102050781</ele>
        <time>2012-11-18T14:39:19Z</time>
      </trkpt>
      <trkpt lat="43.6107" lon="6.93924">
        <ele>78.392395019531</ele>
        <time>2012-11-18T14:39:22Z</time>
      </trkpt>
      <trkpt lat="43.61056" lon="6.93921">
        <ele>77.85595703125</ele>
        <time>2012-11-18T14:39:25Z</time>
      </trkpt>
      <trkpt lat="43.61049" lon="6.93922">
        <ele>76.59449005127</ele>
        <time>2012-11-18T14:39:27Z</time>
      </trkpt>
      <trkpt lat="43.61033" lon="6.93925">
        <ele>73.598999023438</ele>
        <time>2012-11-18T14:39:31Z</time>
      </trkpt>
      <trkpt lat="43.61025" lon="6.93927">
        <ele>71.309150695801</ele>
        <time>2012-11-18T14:39:33Z</time>
      </trkpt>
      <trkpt lat="43.6102" lon="6.93927">
        <ele>69.055328369141</ele>
        <time>2012-11-18T14:39:34Z</time>
      </trkpt>
      <trkpt lat="43.61012" lon="6.93927">
        <ele>65.398567199707</ele>
        <time>2012-11-18T14:39:36Z</time>
      </trkpt>
      <trkpt lat="43.61004" lon="6.93936">
        <ele>61.716659545898</ele>
        <time>2012-11-18T14:39:40Z</time>
      </trkpt>
      <trkpt lat="43.61008" lon="6.93961">
        <ele>62.994144439697</ele>
        <time>2012-11-18T14:39:43Z</time>
      </trkpt>
      <trkpt lat="43.61011" lon="6.9398">
        <ele>63.002479553223</ele>
        <time>2012-11-18T14:39:46Z</time>
      </trkpt>
      <trkpt lat="43.61012" lon="6.93983">
        <ele>63.118743896484</ele>
        <time>2012-11-18T14:39:47Z</time>
      </trkpt>
      <trkpt lat="43.61013" lon="6.93985">
        <ele>63.168430328369</ele>
        <time>2012-11-18T14:39:49Z</time>
      </trkpt>
      <trkpt lat="43.61015" lon="6.93988">
        <ele>63.191764831543</ele>
        <time>2012-11-18T14:39:57Z</time>
      </trkpt>
      <trkpt lat="43.61013" lon="6.93997">
        <ele>61.673751831055</ele>
        <time>2012-11-18T14:40:35Z</time>
      </trkpt>
      <trkpt lat="43.61012" lon="6.94008">
        <ele>60.331817626953</ele>
        <time>2012-11-18T14:40:38Z</time>
      </trkpt>
      <trkpt lat="43.61011" lon="6.9403">
        <ele>58.212711334229</ele>
        <time>2012-11-18T14:40:41Z</time>
      </trkpt>
      <trkpt lat="43.61002" lon="6.94047">
        <ele>54.522846221924</ele>
        <time>2012-11-18T14:40:43Z</time>
      </trkpt>
      <trkpt lat="43.60996" lon="6.94052">
        <ele>53.068893432617</ele>
        <time>2012-11-18T14:40:44Z</time>
      </trkpt>
      <trkpt lat="43.60979" lon="6.94058">
        <ele>51.419898986816</ele>
        <time>2012-11-18T14:40:47Z</time>
      </trkpt>
      <trkpt lat="43.60965" lon="6.94049">
        <ele>51.208999633789</ele>
        <time>2012-11-18T14:40:50Z</time>
      </trkpt>
      <trkpt lat="43.60959" lon="6.94045">
        <ele>51.274230957031</ele>
        <time>2012-11-18T14:40:51Z</time>
      </trkpt>
      <trkpt lat="43.60944" lon="6.94033">
        <ele>51.528915405273</ele>
        <time>2012-11-18T14:40:54Z</time>
      </trkpt>
      <trkpt lat="43.60933" lon="6.94027">
        <ele>51.236366271973</ele>
        <time>2012-11-18T14:40:56Z</time>
      </trkpt>
      <trkpt lat="43.60889" lon="6.94004">
        <ele>50.850448608398</ele>
        <time>2012-11-18T14:41:04Z</time>
      </trkpt>
      <trkpt lat="43.60871" lon="6.9399">
        <ele>50.936706542969</ele>
        <time>2012-11-18T14:41:08Z</time>
      </trkpt>
      <trkpt lat="43.60867" lon="6.93986">
        <ele>51.118873596191</ele>
        <time>2012-11-18T14:41:09Z</time>
      </trkpt>
      <trkpt lat="43.60863" lon="6.93981">
        <ele>51.383358001709</ele>
        <time>2012-11-18T14:41:10Z</time>
      </trkpt>
      <trkpt lat="43.60859" lon="6.93965">
        <ele>52.024566650391</ele>
        <time>2012-11-18T14:41:13Z</time>
      </trkpt>
      <trkpt lat="43.60852" lon="6.93957">
        <ele>51.62287902832</ele>
        <time>2012-11-18T14:41:16Z</time>
      </trkpt>
      <trkpt lat="43.60843" lon="6.93957">
        <ele>50.63582611084</ele>
        <time>2012-11-18T14:41:20Z</time>
      </trkpt>
      <trkpt lat="43.60838" lon="6.93963">
        <ele>49.853050231934</ele>
        <time>2012-11-18T14:41:23Z</time>
      </trkpt>
      <trkpt lat="43.6083" lon="6.93975">
        <ele>48.611824035645</ele>
        <time>2012-11-18T14:41:27Z</time>
      </trkpt>
      <trkpt lat="43.60817" lon="6.94003">
        <ele>47</ele>
        <time>2012-11-18T14:41:34Z</time>
      </trkpt>
      <trkpt lat="43.60812" lon="6.94036">
        <ele>47</ele>
        <time>2012-11-18T14:41:41Z</time>
      </trkpt>
      <trkpt lat="43.60807" lon="6.94068">
        <ele>47.402027130127</ele>
        <time>2012-11-18T14:41:48Z</time>
      </trkpt>
      <trkpt lat="43.60806" lon="6.94089">
        <ele>48.55687713623</ele>
        <time>2012-11-18T14:41:53Z</time>
      </trkpt>
      <trkpt lat="43.60804" lon="6.94118">
        <ele>51.764923095703</ele>
        <time>2012-11-18T14:42:00Z</time>
      </trkpt>
      <trkpt lat="43.60802" lon="6.9415">
        <ele>53.899200439453</ele>
        <time>2012-11-18T14:42:07Z</time>
      </trkpt>
      <trkpt lat="43.60801" lon="6.94173">
        <ele>54.961673736572</ele>
        <time>2012-11-18T14:42:12Z</time>
      </trkpt>
      <trkpt lat="43.60798" lon="6.94211">
        <ele>56.998413085938</ele>
        <time>2012-11-18T14:42:20Z</time>
      </trkpt>
      <trkpt lat="43.60802" lon="6.94232">
        <ele>57.497314453125</ele>
        <time>2012-11-18T14:42:26Z</time>
      </trkpt>
      <trkpt lat="43.60812" lon="6.94243">
        <ele>57.51619720459</ele>
        <time>2012-11-18T14:42:30Z</time>
      </trkpt>
      <trkpt lat="43.60827" lon="6.94252">
        <ele>57.366771697998</ele>
        <time>2012-11-18T14:42:36Z</time>
      </trkpt>
      <trkpt lat="43.60841" lon="6.94262">
        <ele>57.879730224609</ele>
        <time>2012-11-18T14:42:42Z</time>
      </trkpt>
      <trkpt lat="43.60857" lon="6.94274">
        <ele>58.762069702148</ele>
        <time>2012-11-18T14:42:48Z</time>
      </trkpt>
      <trkpt lat="43.60876" lon="6.94292">
        <ele>62.589241027832</ele>
        <time>2012-11-18T14:42:55Z</time>
      </trkpt>
      <trkpt lat="43.60894" lon="6.94308">
        <ele>65.834785461426</ele>
        <time>2012-11-18T14:43:02Z</time>
      </trkpt>
      <trkpt lat="43.60907" lon="6.94317">
        <ele>66.005561828613</ele>
        <time>2012-11-18T14:43:07Z</time>
      </trkpt>
      <trkpt lat="43.6092" lon="6.94328">
        <ele>66.401351928711</ele>
        <time>2012-11-18T14:43:12Z</time>
      </trkpt>
      <trkpt lat="43.60934" lon="6.94338">
        <ele>67.592819213867</ele>
        <time>2012-11-18T14:43:17Z</time>
      </trkpt>
      <trkpt lat="43.60952" lon="6.94349">
        <ele>68.788902282715</ele>
        <time>2012-11-18T14:43:22Z</time>
      </trkpt>
      <trkpt lat="43.60979" lon="6.94364">
        <ele>69.103851318359</ele>
        <time>2012-11-18T14:43:27Z</time>
      </trkpt>
      <trkpt lat="43.61009" lon="6.94381">
        <ele>68.637397766113</ele>
        <time>2012-11-18T14:43:33Z</time>
      </trkpt>
      <trkpt lat="43.61013" lon="6.94382">
        <ele>68.236679077148</ele>
        <time>2012-11-18T14:43:34Z</time>
      </trkpt>
      <trkpt lat="43.61034" lon="6.94389">
        <ele>66.63550567627</ele>
        <time>2012-11-18T14:43:39Z</time>
      </trkpt>
      <trkpt lat="43.61058" lon="6.94401">
        <ele>64.254997253418</ele>
        <time>2012-11-18T14:43:45Z</time>
      </trkpt>
      <trkpt lat="43.61082" lon="6.94416">
        <ele>62.293697357178</ele>
        <time>2012-11-18T14:43:50Z</time>
      </trkpt>
      <trkpt lat="43.61108" lon="6.94432">
        <ele>59.629581451416</ele>
        <time>2012-11-18T14:43:56Z</time>
      </trkpt>
      <trkpt lat="43.61137" lon="6.94449">
        <ele>58.287528991699</ele>
        <time>2012-11-18T14:44:03Z</time>
      </trkpt>
      <trkpt lat="43.61172" lon="6.94469">
        <ele>57.900268554688</ele>
        <time>2012-11-18T14:44:11Z</time>
      </trkpt>
      <trkpt lat="43.61203" lon="6.94488">
        <ele>58.444889068604</ele>
        <time>2012-11-18T14:44:18Z</time>
      </trkpt>
      <trkpt lat="43.61238" lon="6.94508">
        <ele>59.101902008057</ele>
        <time>2012-11-18T14:44:26Z</time>
      </trkpt>
      <trkpt lat="43.61242" lon="6.9451">
        <ele>59.146015167236</ele>
        <time>2012-11-18T14:44:27Z</time>
      </trkpt>
      <trkpt lat="43.61263" lon="6.94523">
        <ele>59.215911865234</ele>
        <time>2012-11-18T14:44:32Z</time>
      </trkpt>
      <trkpt lat="43.6129" lon="6.94541">
        <ele>59.037696838379</ele>
        <time>2012-11-18T14:44:39Z</time>
      </trkpt>
      <trkpt lat="43.61313" lon="6.94558">
        <ele>58.866527557373</ele>
        <time>2012-11-18T14:44:46Z</time>
      </trkpt>
      <trkpt lat="43.6133" lon="6.94569">
        <ele>58.237266540527</ele>
        <time>2012-11-18T14:44:52Z</time>
      </trkpt>
      <trkpt lat="43.61352" lon="6.94584">
        <ele>57.328735351562</ele>
        <time>2012-11-18T14:45:00Z</time>
      </trkpt>
      <trkpt lat="43.61372" lon="6.94599">
        <ele>57.344264984131</ele>
        <time>2012-11-18T14:45:08Z</time>
      </trkpt>
      <trkpt lat="43.61391" lon="6.94621">
        <ele>57</ele>
        <time>2012-11-18T14:45:17Z</time>
      </trkpt>
      <trkpt lat="43.61401" lon="6.94648">
        <ele>57.339286804199</ele>
        <time>2012-11-18T14:45:25Z</time>
      </trkpt>
      <trkpt lat="43.61401" lon="6.94679">
        <ele>58.249706268311</ele>
        <time>2012-11-18T14:45:32Z</time>
      </trkpt>
      <trkpt lat="43.61399" lon="6.94701">
        <ele>58.619445800781</ele>
        <time>2012-11-18T14:45:38Z</time>
      </trkpt>
      <trkpt lat="43.61397" lon="6.94728">
        <ele>58.907875061035</ele>
        <time>2012-11-18T14:45:46Z</time>
      </trkpt>
      <trkpt lat="43.61392" lon="6.94753">
        <ele>60.360042572021</ele>
        <time>2012-11-18T14:45:53Z</time>
      </trkpt>
      <trkpt lat="43.61386" lon="6.94776">
        <ele>65.372276306152</ele>
        <time>2012-11-18T14:46:00Z</time>
      </trkpt>
      <trkpt lat="43.61382" lon="6.948">
        <ele>69.705093383789</ele>
        <time>2012-11-18T14:46:08Z</time>
      </trkpt>
      <trkpt lat="43.6138" lon="6.94828">
        <ele>74.891151428223</ele>
        <time>2012-11-18T14:46:17Z</time>
      </trkpt>
      <trkpt lat="43.61385" lon="6.94857">
        <ele>80.065238952637</ele>
        <time>2012-11-18T14:46:25Z</time>
      </trkpt>
      <trkpt lat="43.61396" lon="6.94882">
        <ele>82.284072875977</ele>
        <time>2012-11-18T14:46:33Z</time>
      </trkpt>
      <trkpt lat="43.61409" lon="6.94901">
        <ele>84.326850891113</ele>
        <time>2012-11-18T14:46:41Z</time>
      </trkpt>
      <trkpt lat="43.61426" lon="6.94915">
        <ele>81.729515075684</ele>
        <time>2012-11-18T14:46:48Z</time>
      </trkpt>
      <trkpt lat="43.61444" lon="6.94932">
        <ele>77.330436706543</ele>
        <time>2012-11-18T14:46:56Z</time>
      </trkpt>
      <trkpt lat="43.61468" lon="6.94956">
        <ele>74.046798706055</ele>
        <time>2012-11-18T14:47:07Z</time>
      </trkpt>
      <trkpt lat="43.61479" lon="6.94976">
        <ele>74.252563476562</ele>
        <time>2012-11-18T14:47:14Z</time>
      </trkpt>
      <trkpt lat="43.61489" lon="6.94998">
        <ele>74.182525634766</ele>
        <time>2012-11-18T14:47:21Z</time>
      </trkpt>
      <trkpt lat="43.61497" lon="6.95019">
        <ele>72.671539306641</ele>
        <time>2012-11-18T14:47:28Z</time>
      </trkpt>
      <trkpt lat="43.61511" lon="6.95054">
        <ele>74.982086181641</ele>
        <time>2012-11-18T14:47:39Z</time>
      </trkpt>
      <trkpt lat="43.61522" lon="6.95077">
        <ele>77.570739746094</ele>
        <time>2012-11-18T14:47:47Z</time>
      </trkpt>
      <trkpt lat="43.61539" lon="6.95105">
        <ele>79.570571899414</ele>
        <time>2012-11-18T14:47:56Z</time>
      </trkpt>
      <trkpt lat="43.61543" lon="6.95127">
        <ele>83.91423034668</ele>
        <time>2012-11-18T14:48:02Z</time>
      </trkpt>
      <trkpt lat="43.61546" lon="6.95147">
        <ele>88.550956726074</ele>
        <time>2012-11-18T14:48:07Z</time>
      </trkpt>
      <trkpt lat="43.61558" lon="6.95166">
        <ele>90.10489654541</ele>
        <time>2012-11-18T14:48:13Z</time>
      </trkpt>
      <trkpt lat="43.61575" lon="6.95192">
        <ele>87.463424682617</ele>
        <time>2012-11-18T14:48:21Z</time>
      </trkpt>
      <trkpt lat="43.61594" lon="6.95215">
        <ele>84.199638366699</ele>
        <time>2012-11-18T14:48:29Z</time>
      </trkpt>
      <trkpt lat="43.61605" lon="6.95235">
        <ele>82.865303039551</ele>
        <time>2012-11-18T14:48:36Z</time>
      </trkpt>
      <trkpt lat="43.6162" lon="6.95268">
        <ele>79.937622070312</ele>
        <time>2012-11-18T14:48:46Z</time>
      </trkpt>
      <trkpt lat="43.6163" lon="6.95291">
        <ele>77.245300292969</ele>
        <time>2012-11-18T14:48:53Z</time>
      </trkpt>
      <trkpt lat="43.6164" lon="6.9532">
        <ele>75.475250244141</ele>
        <time>2012-11-18T14:49:01Z</time>
      </trkpt>
      <trkpt lat="43.61645" lon="6.95341">
        <ele>76.359420776367</ele>
        <time>2012-11-18T14:49:06Z</time>
      </trkpt>
      <trkpt lat="43.61647" lon="6.95361">
        <ele>77.742240905762</ele>
        <time>2012-11-18T14:49:12Z</time>
      </trkpt>
      <trkpt lat="43.61646" lon="6.95386">
        <ele>79.731079101562</ele>
        <time>2012-11-18T14:49:19Z</time>
      </trkpt>
      <trkpt lat="43.61643" lon="6.95411">
        <ele>80</ele>
        <time>2012-11-18T14:49:27Z</time>
      </trkpt>
      <trkpt lat="43.61641" lon="6.95438">
        <ele>80</ele>
        <time>2012-11-18T14:49:35Z</time>
      </trkpt>
      <trkpt lat="43.61638" lon="6.95469">
        <ele>80.926277160645</ele>
        <time>2012-11-18T14:49:43Z</time>
      </trkpt>
      <trkpt lat="43.61636" lon="6.95493">
        <ele>81.237548828125</ele>
        <time>2012-11-18T14:49:50Z</time>
      </trkpt>
      <trkpt lat="43.61626" lon="6.95521">
        <ele>81.589126586914</ele>
        <time>2012-11-18T14:49:58Z</time>
      </trkpt>
      <trkpt lat="43.61604" lon="6.95558">
        <ele>82.492904663086</ele>
        <time>2012-11-18T14:50:08Z</time>
      </trkpt>
      <trkpt lat="43.61587" lon="6.95579">
        <ele>83.014701843262</ele>
        <time>2012-11-18T14:50:14Z</time>
      </trkpt>
      <trkpt lat="43.61569" lon="6.95604">
        <ele>85.876014709473</ele>
        <time>2012-11-18T14:50:19Z</time>
      </trkpt>
      <trkpt lat="43.61564" lon="6.95612">
        <ele>86.405136108398</ele>
        <time>2012-11-18T14:50:20Z</time>
      </trkpt>
      <trkpt lat="43.61555" lon="6.95638">
        <ele>85.291534423828</ele>
        <time>2012-11-18T14:50:23Z</time>
      </trkpt>
      <trkpt lat="43.6155" lon="6.95685">
        <ele>85.643699645996</ele>
        <time>2012-11-18T14:50:27Z</time>
      </trkpt>
      <trkpt lat="43.61546" lon="6.95741">
        <ele>85.9990234375</ele>
        <time>2012-11-18T14:50:31Z</time>
      </trkpt>
      <trkpt lat="43.61531" lon="6.95809">
        <ele>87.116516113281</ele>
        <time>2012-11-18T14:50:36Z</time>
      </trkpt>
      <trkpt lat="43.61512" lon="6.95883">
        <ele>88.433853149414</ele>
        <time>2012-11-18T14:50:42Z</time>
      </trkpt>
      <trkpt lat="43.61509" lon="6.95895">
        <ele>88.739410400391</ele>
        <time>2012-11-18T14:50:43Z</time>
      </trkpt>
      <trkpt lat="43.61493" lon="6.95956">
        <ele>89.68603515625</ele>
        <time>2012-11-18T14:50:48Z</time>
      </trkpt>
      <trkpt lat="43.61481" lon="6.96008">
        <ele>91.303977966309</ele>
        <time>2012-11-18T14:50:53Z</time>
      </trkpt>
      <trkpt lat="43.6147" lon="6.96059">
        <ele>93.008934020996</ele>
        <time>2012-11-18T14:50:59Z</time>
      </trkpt>
      <trkpt lat="43.61451" lon="6.96112">
        <ele>94.774726867676</ele>
        <time>2012-11-18T14:51:06Z</time>
      </trkpt>
      <trkpt lat="43.61431" lon="6.96166">
        <ele>95.991119384766</ele>
        <time>2012-11-18T14:51:13Z</time>
      </trkpt>
      <trkpt lat="43.61412" lon="6.96215">
        <ele>96.730049133301</ele>
        <time>2012-11-18T14:51:19Z</time>
      </trkpt>
      <trkpt lat="43.61394" lon="6.96257">
        <ele>97</ele>
        <time>2012-11-18T14:51:25Z</time>
      </trkpt>
      <trkpt lat="43.61383" lon="6.96286">
        <ele>97.287803649902</ele>
        <time>2012-11-18T14:51:30Z</time>
      </trkpt>
      <trkpt lat="43.61382" lon="6.96292">
        <ele>97.502380371094</ele>
        <time>2012-11-18T14:51:31Z</time>
      </trkpt>
      <trkpt lat="43.6138" lon="6.9631">
        <ele>98</ele>
        <time>2012-11-18T14:51:34Z</time>
      </trkpt>
      <trkpt lat="43.61379" lon="6.96314">
        <ele>98</ele>
        <time>2012-11-18T14:51:35Z</time>
      </trkpt>
      <trkpt lat="43.61379" lon="6.9632">
        <ele>98</ele>
        <time>2012-11-18T14:51:36Z</time>
      </trkpt>
      <trkpt lat="43.61383" lon="6.96348">
        <ele>98</ele>
        <time>2012-11-18T14:51:40Z</time>
      </trkpt>
      <trkpt lat="43.61398" lon="6.96369">
        <ele>98.519706726074</ele>
        <time>2012-11-18T14:51:44Z</time>
      </trkpt>
      <trkpt lat="43.61404" lon="6.96403">
        <ele>99.281303405762</ele>
        <time>2012-11-18T14:51:49Z</time>
      </trkpt>
      <trkpt lat="43.61412" lon="6.96465">
        <ele>100.55884552002</ele>
        <time>2012-11-18T14:51:58Z</time>
      </trkpt>
      <trkpt lat="43.61417" lon="6.96521">
        <ele>102.00912475586</ele>
        <time>2012-11-18T14:52:06Z</time>
      </trkpt>
      <trkpt lat="43.61418" lon="6.96528">
        <ele>102.05316925049</ele>
        <time>2012-11-18T14:52:07Z</time>
      </trkpt>
      <trkpt lat="43.61426" lon="6.96569">
        <ele>103.34185791016</ele>
        <time>2012-11-18T14:52:13Z</time>
      </trkpt>
      <trkpt lat="43.61428" lon="6.96602">
        <ele>104.11209106445</ele>
        <time>2012-11-18T14:52:18Z</time>
      </trkpt>
      <trkpt lat="43.61428" lon="6.96609">
        <ele>104.31121826172</ele>
        <time>2012-11-18T14:52:19Z</time>
      </trkpt>
      <trkpt lat="43.61422" lon="6.96626">
        <ele>104.19079589844</ele>
        <time>2012-11-18T14:52:22Z</time>
      </trkpt>
      <trkpt lat="43.61415" lon="6.96643">
        <ele>104.1008605957</ele>
        <time>2012-11-18T14:52:25Z</time>
      </trkpt>
      <trkpt lat="43.61391" lon="6.96701">
        <ele>104.30935668945</ele>
        <time>2012-11-18T14:52:36Z</time>
      </trkpt>
      <trkpt lat="43.61388" lon="6.96705">
        <ele>104.38542175293</ele>
        <time>2012-11-18T14:52:37Z</time>
      </trkpt>
      <trkpt lat="43.61382" lon="6.96718">
        <ele>104.83174133301</ele>
        <time>2012-11-18T14:52:40Z</time>
      </trkpt>
      <trkpt lat="43.61375" lon="6.96741">
        <ele>105.33754730225</ele>
        <time>2012-11-18T14:52:45Z</time>
      </trkpt>
      <trkpt lat="43.61374" lon="6.96745">
        <ele>105.37343597412</ele>
        <time>2012-11-18T14:52:46Z</time>
      </trkpt>
      <trkpt lat="43.61361" lon="6.96779">
        <ele>106.00036621094</ele>
        <time>2012-11-18T14:52:54Z</time>
      </trkpt>
      <trkpt lat="43.61348" lon="6.96808">
        <ele>106.51100158691</ele>
        <time>2012-11-18T14:53:02Z</time>
      </trkpt>
      <trkpt lat="43.61342" lon="6.96827">
        <ele>106.93405151367</ele>
        <time>2012-11-18T14:53:08Z</time>
      </trkpt>
      <trkpt lat="43.61334" lon="6.96846">
        <ele>107.46659851074</ele>
        <time>2012-11-18T14:53:14Z</time>
      </trkpt>
      <trkpt lat="43.61327" lon="6.96869">
        <ele>108.22869873047</ele>
        <time>2012-11-18T14:53:20Z</time>
      </trkpt>
      <trkpt lat="43.6132" lon="6.96895">
        <ele>108.5874710083</ele>
        <time>2012-11-18T14:53:27Z</time>
      </trkpt>
      <trkpt lat="43.6132" lon="6.96912">
        <ele>108.90299987793</ele>
        <time>2012-11-18T14:53:34Z</time>
      </trkpt>
      <trkpt lat="43.61319" lon="6.96917">
        <ele>108.99849700928</ele>
        <time>2012-11-18T14:54:49Z</time>
      </trkpt>
      <trkpt lat="43.61317" lon="6.96918">
        <ele>109.03034973144</ele>
        <time>2012-11-18T14:54:50Z</time>
      </trkpt>
      <trkpt lat="43.61307" lon="6.96916">
        <ele>108.99893951416</ele>
        <time>2012-11-18T14:54:54Z</time>
      </trkpt>
      <trkpt lat="43.61297" lon="6.96905">
        <ele>109.29986572266</ele>
        <time>2012-11-18T14:54:58Z</time>
      </trkpt>
      <trkpt lat="43.61293" lon="6.96901">
        <ele>109.43719482422</ele>
        <time>2012-11-18T14:54:59Z</time>
      </trkpt>
      <trkpt lat="43.61271" lon="6.96879">
        <ele>110.46740722656</ele>
        <time>2012-11-18T14:55:04Z</time>
      </trkpt>
      <trkpt lat="43.6124" lon="6.96842">
        <ele>112.34606933594</ele>
        <time>2012-11-18T14:55:12Z</time>
      </trkpt>
      <trkpt lat="43.61234" lon="6.96832">
        <ele>112.59220123291</ele>
        <time>2012-11-18T14:55:14Z</time>
      </trkpt>
      <trkpt lat="43.61232" lon="6.96812">
        <ele>113.18027496338</ele>
        <time>2012-11-18T14:55:17Z</time>
      </trkpt>
      <trkpt lat="43.61234" lon="6.96796">
        <ele>113.1865234375</ele>
        <time>2012-11-18T14:55:19Z</time>
      </trkpt>
      <trkpt lat="43.61234" lon="6.96788">
        <ele>113.1865234375</ele>
        <time>2012-11-18T14:55:20Z</time>
      </trkpt>
      <trkpt lat="43.61232" lon="6.96771">
        <ele>113.52830505371</ele>
        <time>2012-11-18T14:55:22Z</time>
      </trkpt>
      <trkpt lat="43.6122" lon="6.96741">
        <ele>114.95026397705</ele>
        <time>2012-11-18T14:55:26Z</time>
      </trkpt>
      <trkpt lat="43.61199" lon="6.96723">
        <ele>114.98121643066</ele>
        <time>2012-11-18T14:55:30Z</time>
      </trkpt>
      <trkpt lat="43.61174" lon="6.96719">
        <ele>115.07808685303</ele>
        <time>2012-11-18T14:55:34Z</time>
      </trkpt>
      <trkpt lat="43.61152" lon="6.96732">
        <ele>115</ele>
        <time>2012-11-18T14:55:38Z</time>
      </trkpt>
      <trkpt lat="43.61135" lon="6.96735">
        <ele>115.40905761719</ele>
        <time>2012-11-18T14:55:41Z</time>
      </trkpt>
      <trkpt lat="43.6112" lon="6.96722">
        <ele>117.07763671875</ele>
        <time>2012-11-18T14:55:44Z</time>
      </trkpt>
      <trkpt lat="43.61115" lon="6.96717">
        <ele>117.79346466065</ele>
        <time>2012-11-18T14:55:45Z</time>
      </trkpt>
      <trkpt lat="43.61078" lon="6.9668">
        <ele>121.10327148438</ele>
        <time>2012-11-18T14:55:53Z</time>
      </trkpt>
      <trkpt lat="43.61043" lon="6.96645">
        <ele>122.34523010254</ele>
        <time>2012-11-18T14:56:01Z</time>
      </trkpt>
      <trkpt lat="43.61013" lon="6.96614">
        <ele>123.46786499023</ele>
        <time>2012-11-18T14:56:08Z</time>
      </trkpt>
      <trkpt lat="43.60982" lon="6.96583">
        <ele>125.01027679443</ele>
        <time>2012-11-18T14:56:14Z</time>
      </trkpt>
      <trkpt lat="43.60936" lon="6.96537">
        <ele>126.65705871582</ele>
        <time>2012-11-18T14:56:22Z</time>
      </trkpt>
      <trkpt lat="43.60925" lon="6.96526">
        <ele>127.05702972412</ele>
        <time>2012-11-18T14:56:24Z</time>
      </trkpt>
      <trkpt lat="43.60876" lon="6.96478">
        <ele>129.77536010742</ele>
        <time>2012-11-18T14:56:33Z</time>
      </trkpt>
      <trkpt lat="43.60852" lon="6.96452">
        <ele>130.73150634766</ele>
        <time>2012-11-18T14:56:38Z</time>
      </trkpt>
      <trkpt lat="43.60806" lon="6.96406">
        <ele>132.39147949219</ele>
        <time>2012-11-18T14:56:47Z</time>
      </trkpt>
      <trkpt lat="43.60774" lon="6.96374">
        <ele>133.54333496094</ele>
        <time>2012-11-18T14:56:54Z</time>
      </trkpt>
      <trkpt lat="43.60727" lon="6.96327">
        <ele>129.22425842285</ele>
        <time>2012-11-18T14:57:05Z</time>
      </trkpt>
      <trkpt lat="43.60701" lon="6.96301">
        <ele>128.81085205078</ele>
        <time>2012-11-18T14:57:12Z</time>
      </trkpt>
      <trkpt lat="43.60686" lon="6.96286">
        <ele>129</ele>
        <time>2012-11-18T14:57:16Z</time>
      </trkpt>
      <trkpt lat="43.60683" lon="6.96281">
        <ele>129</ele>
        <time>2012-11-18T14:57:18Z</time>
      </trkpt>
      <trkpt lat="43.60677" lon="6.9627">
        <ele>129.16934204102</ele>
        <time>2012-11-18T14:57:24Z</time>
      </trkpt>
      <trkpt lat="43.60676" lon="6.96266">
        <ele>129.28912353516</ele>
        <time>2012-11-18T14:57:30Z</time>
      </trkpt>
      <trkpt lat="43.60673" lon="6.96249">
        <ele>129.79223632812</ele>
        <time>2012-11-18T14:57:34Z</time>
      </trkpt>
      <trkpt lat="43.60666" lon="6.96209">
        <ele>130</ele>
        <time>2012-11-18T14:57:40Z</time>
      </trkpt>
      <trkpt lat="43.60662" lon="6.96171">
        <ele>130.84579467773</ele>
        <time>2012-11-18T14:57:46Z</time>
      </trkpt>
      <trkpt lat="43.60661" lon="6.96164">
        <ele>131</ele>
        <time>2012-11-18T14:57:47Z</time>
      </trkpt>
      <trkpt lat="43.60655" lon="6.96137">
        <ele>131.06288146973</ele>
        <time>2012-11-18T14:57:51Z</time>
      </trkpt>
      <trkpt lat="43.60648" lon="6.96119">
        <ele>131.72720336914</ele>
        <time>2012-11-18T14:57:54Z</time>
      </trkpt>
      <trkpt lat="43.60629" lon="6.96064">
        <ele>132.45109558106</ele>
        <time>2012-11-18T14:58:03Z</time>
      </trkpt>
      <trkpt lat="43.60613" lon="6.96029">
        <ele>132.96112060547</ele>
        <time>2012-11-18T14:58:09Z</time>
      </trkpt>
      <trkpt lat="43.60593" lon="6.95991">
        <ele>133.11563110352</ele>
        <time>2012-11-18T14:58:16Z</time>
      </trkpt>
      <trkpt lat="43.60581" lon="6.9597">
        <ele>133.07398986816</ele>
        <time>2012-11-18T14:58:20Z</time>
      </trkpt>
      <trkpt lat="43.60575" lon="6.95959">
        <ele>133.33267211914</ele>
        <time>2012-11-18T14:58:22Z</time>
      </trkpt>
      <trkpt lat="43.60561" lon="6.95933">
        <ele>133.54058837891</ele>
        <time>2012-11-18T14:58:27Z</time>
      </trkpt>
      <trkpt lat="43.60555" lon="6.95922">
        <ele>133.78965759277</ele>
        <time>2012-11-18T14:58:29Z</time>
      </trkpt>
      <trkpt lat="43.60543" lon="6.95896">
        <ele>133.56390380859</ele>
        <time>2012-11-18T14:58:34Z</time>
      </trkpt>
      <trkpt lat="43.60544" lon="6.95883">
        <ele>133.66445922852</ele>
        <time>2012-11-18T14:58:36Z</time>
      </trkpt>
      <trkpt lat="43.60551" lon="6.95865">
        <ele>133.97270202637</ele>
        <time>2012-11-18T14:58:39Z</time>
      </trkpt>
      <trkpt lat="43.60554" lon="6.9586">
        <ele>134.04525756836</ele>
        <time>2012-11-18T14:58:40Z</time>
      </trkpt>
      <trkpt lat="43.60577" lon="6.95816">
        <ele>135.47422790527</ele>
        <time>2012-11-18T14:58:47Z</time>
      </trkpt>
      <trkpt lat="43.60587" lon="6.95797">
        <ele>136.04550170898</ele>
        <time>2012-11-18T14:58:50Z</time>
      </trkpt>
      <trkpt lat="43.60597" lon="6.95776">
        <ele>136.52391052246</ele>
        <time>2012-11-18T14:58:53Z</time>
      </trkpt>
      <trkpt lat="43.60624" lon="6.95726">
        <ele>137.40225219727</ele>
        <time>2012-11-18T14:59:00Z</time>
      </trkpt>
      <trkpt lat="43.60654" lon="6.95676">
        <ele>138.66940307617</ele>
        <time>2012-11-18T14:59:07Z</time>
      </trkpt>
      <trkpt lat="43.60677" lon="6.95624">
        <ele>139.52505493164</ele>
        <time>2012-11-18T14:59:14Z</time>
      </trkpt>
      <trkpt lat="43.60684" lon="6.95611">
        <ele>139.99026489258</ele>
        <time>2012-11-18T14:59:16Z</time>
      </trkpt>
      <trkpt lat="43.60691" lon="6.95599">
        <ele>140</ele>
        <time>2012-11-18T14:59:18Z</time>
      </trkpt>
      <trkpt lat="43.60688" lon="6.95585">
        <ele>140</ele>
        <time>2012-11-18T14:59:20Z</time>
      </trkpt>
      <trkpt lat="43.60675" lon="6.95581">
        <ele>140</ele>
        <time>2012-11-18T14:59:22Z</time>
      </trkpt>
      <trkpt lat="43.60668" lon="6.9558">
        <ele>140</ele>
        <time>2012-11-18T14:59:23Z</time>
      </trkpt>
      <trkpt lat="43.60634" lon="6.95569">
        <ele>140</ele>
        <time>2012-11-18T14:59:28Z</time>
      </trkpt>
      <trkpt lat="43.60582" lon="6.9555">
        <ele>139.93719482422</ele>
        <time>2012-11-18T14:59:36Z</time>
      </trkpt>
      <trkpt lat="43.60575" lon="6.95547">
        <ele>139.71746826172</ele>
        <time>2012-11-18T14:59:37Z</time>
      </trkpt>
      <trkpt lat="43.60537" lon="6.95523">
        <ele>139.05595397949</ele>
        <time>2012-11-18T14:59:43Z</time>
      </trkpt>
      <trkpt lat="43.60503" lon="6.95492">
        <ele>139.03707885742</ele>
        <time>2012-11-18T14:59:48Z</time>
      </trkpt>
      <trkpt lat="43.60457" lon="6.95448">
        <ele>139.87310791016</ele>
        <time>2012-11-18T14:59:55Z</time>
      </trkpt>
      <trkpt lat="43.60414" lon="6.95411">
        <ele>140</ele>
        <time>2012-11-18T15:00:02Z</time>
      </trkpt>
      <trkpt lat="43.60409" lon="6.95406">
        <ele>140</ele>
        <time>2012-11-18T15:00:03Z</time>
      </trkpt>
      <trkpt lat="43.60392" lon="6.95391">
        <ele>140</ele>
        <time>2012-11-18T15:00:06Z</time>
      </trkpt>
      <trkpt lat="43.60341" lon="6.95349">
        <ele>140</ele>
        <time>2012-11-18T15:00:15Z</time>
      </trkpt>
      <trkpt lat="43.60292" lon="6.95305">
        <ele>140</ele>
        <time>2012-11-18T15:00:24Z</time>
      </trkpt>
      <trkpt lat="43.60282" lon="6.95295">
        <ele>140</ele>
        <time>2012-11-18T15:00:26Z</time>
      </trkpt>
      <trkpt lat="43.6027" lon="6.95275">
        <ele>140</ele>
        <time>2012-11-18T15:00:29Z</time>
      </trkpt>
      <trkpt lat="43.60239" lon="6.9522">
        <ele>140.04853820801</ele>
        <time>2012-11-18T15:00:37Z</time>
      </trkpt>
      <trkpt lat="43.60214" lon="6.95171">
        <ele>140</ele>
        <time>2012-11-18T15:00:44Z</time>
      </trkpt>
      <trkpt lat="43.60186" lon="6.95117">
        <ele>140.55339050293</ele>
        <time>2012-11-18T15:00:52Z</time>
      </trkpt>
      <trkpt lat="43.60183" lon="6.95111">
        <ele>140.61091613769</ele>
        <time>2012-11-18T15:00:53Z</time>
      </trkpt>
      <trkpt lat="43.60185" lon="6.95097">
        <ele>141.01602172852</ele>
        <time>2012-11-18T15:00:55Z</time>
      </trkpt>
      <trkpt lat="43.60196" lon="6.9509">
        <ele>141.82667541504</ele>
        <time>2012-11-18T15:00:58Z</time>
      </trkpt>
      <trkpt lat="43.60199" lon="6.95087">
        <ele>142.00863647461</ele>
        <time>2012-11-18T15:00:59Z</time>
      </trkpt>
      <trkpt lat="43.60199" lon="6.95081">
        <ele>142.07720947266</ele>
        <time>2012-11-18T15:01:01Z</time>
      </trkpt>
      <trkpt lat="43.60197" lon="6.95076">
        <ele>141.84204101562</ele>
        <time>2012-11-18T15:01:03Z</time>
      </trkpt>
      <trkpt lat="43.60196" lon="6.95073">
        <ele>141.66865539551</ele>
        <time>2012-11-18T15:01:06Z</time>
      </trkpt>
    </trkseg>
  </trk>
</gpx>